Observation data for Tarzan on 01/19/2019      Previous  Date  Next       Current Mesonet Observations  Soil Data  Daily Summary Page  Observations in Plain Language
KTA1 190600Z 33020KT 05/00 A3008 RMK A01 T00470000  RH  071%=      5-min Rain = 0
KTA1 190601Z 33017G22KT 05/00 A3008 RMK A01 T00470000  RH  072%=      5-min Rain = 0
KTA1 190602Z 34020KT 05/00 A3008 RMK A01 T00470001  RH  072%=      5-min Rain = 0
KTA1 190603Z 33020G26KT 05/00 A3008 RMK A01 T00470001  RH  072%=      5-min Rain = 0
KTA1 190604Z 34017KT 05/00 A3008 RMK A01 T00470001  RH  072%=      5-min Rain = 0
KTA1 190605Z 34021G27KT 05/00 A3008 RMK A01 T00460001  RH  072%=      5-min Rain = 0
KTA1 190606Z 34020KT 05/00 A3008 RMK A01 T00460001  RH  073%=      5-min Rain = 0
KTA1 190607Z 33021G26KT 05/00 A3008 RMK A01 T00460001  RH  073%=      5-min Rain = 0
KTA1 190608Z 34017KT 05/00 A3009 RMK A01 T00450001  RH  073%=      5-min Rain = 0
KTA1 190609Z 33017G24KT 05/00 A3009 RMK A01 T00450002  RH  073%=      5-min Rain = 0
KTA1 190610Z 33022KT 05/00 A3009 RMK A01 T00450002  RH  073%=      5-min Rain = 0
KTA1 190611Z 34019G25KT 05/00 A3009 RMK A01 T00450002  RH  073%=      5-min Rain = 0
KTA1 190612Z 34021KT 05/00 A3009 RMK A01 T00450002  RH  074%=      5-min Rain = 0
KTA1 190613Z 34016G21KT 05/00 A3009 RMK A01 T00450002  RH  073%=      5-min Rain = 0
KTA1 190614Z 34018KT 05/00 A3009 RMK A01 T00450002  RH  073%=      5-min Rain = 0
KTA1 190615Z 34018G23KT 05/00 A3009 RMK A01 T00460002  RH  073%=      5-min Rain = 0
KTA1 190616Z 34014KT 05/00 A3009 RMK A01 T00450002  RH  073%=      5-min Rain = 0
KTA1 190617Z 35017KT 05/00 A3009 RMK A01 T00460002  RH  073%=      5-min Rain = 0
KTA1 190618Z 35021G28KT 05/00 A3009 RMK A01 T00450000  RH  073%=      5-min Rain = 0
KTA1 190619Z 34020G25KT 05/M00 A3009 RMK A01 T00451001  RH  072%=      5-min Rain = 0
KTA1 190620Z 34020G26KT 04/M00 A3009 RMK A01 T00441001  RH  072%=      5-min Rain = 0
KTA1 190621Z 34025G30KT 04/M00 A3009 RMK A01 T00441003  RH  071%=      5-min Rain = 0
KTA1 190622Z 33018G24KT 04/M01 A3009 RMK A01 T00441005  RH  070%=      5-min Rain = 0
KTA1 190623Z 34022G27KT 04/M01 A301 RMK A01 T00441006  RH  070%=      5-min Rain = 0
KTA1 190624Z 34024G30KT 04/M01 A301 RMK A01 T00441008  RH  069%=      5-min Rain = 0
KTA1 190625Z 35023G28KT 04/M01 A301 RMK A01 T00441009  RH  068%=      5-min Rain = 0
KTA1 190626Z 34022G30KT 04/M01 A301 RMK A01 T00431011  RH  068%=      5-min Rain = 0
KTA1 190627Z 34021G26KT 04/M01 A301 RMK A01 T00431012  RH  068%=      5-min Rain = 0
KTA1 190628Z 35021G27KT 04/M01 A301 RMK A01 T00431012  RH  068%=      5-min Rain = 0
KTA1 190629Z 34023G28KT 04/M01 A301 RMK A01 T00421012  RH  068%=      5-min Rain = 0
KTA1 190630Z 34023KT 04/M01 A301 RMK A01 T00421012  RH  068%=      5-min Rain = 0
KTA1 190631Z 34025G33KT 04/M01 A301 RMK A01 T00421012  RH  068%=      5-min Rain = 0
KTA1 190632Z 34021G26KT 04/M01 A301 RMK A01 T00421012  RH  068%=      5-min Rain = 0
KTA1 190633Z 34023KT 04/M01 A301 RMK A01 T00421012  RH  068%=      5-min Rain = 0
KTA1 190634Z 34021KT 04/M01 A301 RMK A01 T00421012  RH  068%=      5-min Rain = 0
KTA1 190635Z 34020KT 04/M01 A301 RMK A01 T00421011  RH  068%=      5-min Rain = 0
KTA1 190636Z 34018KT 04/M01 A301 RMK A01 T00411011  RH  069%=      5-min Rain = 0
KTA1 190637Z 34018KT 04/M01 A301 RMK A01 T00411011  RH  069%=      5-min Rain = 0
KTA1 190638Z 34018KT 04/M01 A3011 RMK A01 T00411010  RH  069%=      5-min Rain = 0
KTA1 190639Z 34017KT 04/M01 A3011 RMK A01 T00411010  RH  069%=      5-min Rain = 0
KTA1 190640Z 34016KT 04/M01 A3011 RMK A01 T00411010  RH  070%=      5-min Rain = 0
KTA1 190641Z 34020G25KT 04/M01 A3011 RMK A01 T00411010  RH  070%=      5-min Rain = 0
KTA1 190642Z 34020KT 04/M01 A3011 RMK A01 T00411010  RH  069%=      5-min Rain = 0
KTA1 190643Z 33019KT 04/M01 A3011 RMK A01 T00411010  RH  069%=      5-min Rain = 0
KTA1 190644Z 33019KT 04/M01 A3011 RMK A01 T00421010  RH  069%=      5-min Rain = 0
KTA1 190645Z 34018KT 04/M01 A3011 RMK A01 T00411010  RH  069%=      5-min Rain = 0
KTA1 190646Z 34018G26KT 04/M01 A3011 RMK A01 T00421010  RH  069%=      5-min Rain = 0
KTA1 190647Z 34023KT 04/M01 A3011 RMK A01 T00421010  RH  069%=      5-min Rain = 0
KTA1 190648Z 34016KT 04/M01 A3011 RMK A01 T00411011  RH  069%=      5-min Rain = 0
KTA1 190649Z 35021KT 04/M01 A3011 RMK A01 T00411010  RH  069%=      5-min Rain = 0
KTA1 190650Z 34021KT 04/M01 A3011 RMK A01 T00411010  RH  069%=      5-min Rain = 0
KTA1 190651Z 34020KT 04/M01 A3011 RMK A01 T00411010  RH  069%=      5-min Rain = 0
KTA1 190652Z 34018G24KT 04/M01 A3011 RMK A01 T00411011  RH  069%=      5-min Rain = 0
KTA1 190653Z 34020KT 04/M01 A3011 RMK A01 T00411011  RH  069%=      5-min Rain = 0
KTA1 190654Z 34021KT 04/M01 A3011 RMK A01 T00401011  RH  069%=      5-min Rain = 0
KTA1 190655Z 34021KT 04/M01 A3011 RMK A01 T00401010  RH  070%=      5-min Rain = 0
KTA1 190656Z 34020KT 04/M01 A3011 RMK A01 T00401010  RH  070%=      5-min Rain = 0
KTA1 190657Z 34018G23KT 04/M01 A3012 RMK A01 T00401010  RH  070%=      5-min Rain = 0
KTA1 190658Z 34015KT 04/M01 A3012 RMK A01 T00391010  RH  070%=      5-min Rain = 0
KTA1 190659Z 33018G25KT 04/M01 A3012 RMK A01 T00391010  RH  070%=      5-min Rain = 0
KTA1 190700Z 34019G26KT 04/M01 A3012 RMK A01 T00391010  RH  070%=      5-min Rain = 0
KTA1 190701Z 34019G24KT 04/M01 A3012 RMK A01 T00391010  RH  071%=      5-min Rain = 0
KTA1 190702Z 34016G21KT 04/M01 A3012 RMK A01 T00391010  RH  071%=      5-min Rain = 0
KTA1 190703Z 34018G23KT 04/M01 A3012 RMK A01 T00381010  RH  071%=      5-min Rain = 0
KTA1 190704Z 34020G25KT 04/M01 A3012 RMK A01 T00381010  RH  071%=      5-min Rain = 0
KTA1 190705Z 33020G25KT 04/M01 A3011 RMK A01 T00381010  RH  071%=      5-min Rain = 0
KTA1 190706Z 34020G26KT 04/M01 A3011 RMK A01 T00381009  RH  071%=      5-min Rain = 0
KTA1 190707Z 34019KT 04/M01 A3012 RMK A01 T00381009  RH  071%=      5-min Rain = 0
KTA1 190708Z 33020KT 04/M01 A3012 RMK A01 T00381009  RH  071%=      5-min Rain = 0
KTA1 190709Z 33018G24KT 04/M01 A3012 RMK A01 T00381009  RH  071%=      5-min Rain = 0
KTA1 190710Z 33019KT 04/M01 A3012 RMK A01 T00381009  RH  072%=      5-min Rain = 0
KTA1 190711Z 33019KT 04/M01 A3012 RMK A01 T00371009  RH  072%=      5-min Rain = 0
KTA1 190712Z 34017KT 04/M01 A3012 RMK A01 T00371009  RH  072%=      5-min Rain = 0
KTA1 190713Z 33018KT 04/M01 A3012 RMK A01 T00371009  RH  072%=      5-min Rain = 0
KTA1 190714Z 34020G26KT 04/M01 A3012 RMK A01 T00361009  RH  072%=      5-min Rain = 0
KTA1 190715Z 34021G26KT 04/M01 A3012 RMK A01 T00361009  RH  072%=      5-min Rain = 0
KTA1 190716Z 33017KT 04/M01 A3012 RMK A01 T00361009  RH  072%=      5-min Rain = 0
KTA1 190717Z 33019G24KT 04/M01 A3012 RMK A01 T00361009  RH  072%=      5-min Rain = 0
KTA1 190718Z 34020KT 04/M01 A3012 RMK A01 T00361008  RH  073%=      5-min Rain = 0
KTA1 190719Z 34020G25KT 04/M01 A3012 RMK A01 T00361009  RH  073%=      5-min Rain = 0
KTA1 190720Z 33017G23KT 04/M01 A3012 RMK A01 T00361009  RH  073%=      5-min Rain = 0
KTA1 190721Z 33019KT 04/M01 A3012 RMK A01 T00361008  RH  073%=      5-min Rain = 0
KTA1 190722Z 34018KT 04/M01 A3013 RMK A01 T00361008  RH  073%=      5-min Rain = 0
KTA1 190723Z 33017KT 04/M01 A3013 RMK A01 T00351008  RH  073%=      5-min Rain = 0
KTA1 190724Z 34018KT 04/M01 A3013 RMK A01 T00351008  RH  073%=      5-min Rain = 0
KTA1 190725Z 33019KT 04/M01 A3013 RMK A01 T00351008  RH  073%=      5-min Rain = 0
KTA1 190726Z 33020KT 04/M01 A3013 RMK A01 T00351008  RH  073%=      5-min Rain = 0
KTA1 190727Z 33019KT 04/M01 A3013 RMK A01 T00351008  RH  073%=      5-min Rain = 0
KTA1 190728Z 33019G24KT 04/M01 A3013 RMK A01 T00351008  RH  074%=      5-min Rain = 0
KTA1 190729Z 34017G23KT 04/M01 A3013 RMK A01 T00351007  RH  074%=      5-min Rain = 0
KTA1 190730Z 34018KT 04/M01 A3013 RMK A01 T00351008  RH  074%=      5-min Rain = 0
KTA1 190731Z 34017KT 04/M01 A3013 RMK A01 T00351007  RH  074%=      5-min Rain = 0
KTA1 190732Z 34016KT 04/M01 A3013 RMK A01 T00351007  RH  074%=      5-min Rain = 0
KTA1 190733Z 33017KT 04/M01 A3013 RMK A01 T00351007  RH  074%=      5-min Rain = 0
KTA1 190734Z 33018KT 04/M01 A3013 RMK A01 T00351007  RH  074%=      5-min Rain = 0
KTA1 190735Z 33018KT 04/M01 A3013 RMK A01 T00351007  RH  074%=      5-min Rain = 0
KTA1 190736Z 34019KT 03/M01 A3013 RMK A01 T00341007  RH  074%=      5-min Rain = 0
KTA1 190737Z 33017G23KT 04/M01 A3013 RMK A01 T00351007  RH  074%=      5-min Rain = 0
KTA1 190738Z 33017KT 04/M01 A3013 RMK A01 T00351006  RH  074%=      5-min Rain = 0
KTA1 190739Z 33016G21KT 03/M01 A3013 RMK A01 T00341007  RH  075%=      5-min Rain = 0
KTA1 190740Z 33017KT 03/M01 A3013 RMK A01 T00341007  RH  075%=      5-min Rain = 0
KTA1 190741Z 33014G19KT 03/M01 A3013 RMK A01 T00341006  RH  075%=      5-min Rain = 0
KTA1 190742Z 33016KT 03/M01 A3013 RMK A01 T00341006  RH  075%=      5-min Rain = 0
KTA1 190743Z 33013KT 03/M01 A3013 RMK A01 T00331007  RH  075%=      5-min Rain = 0
KTA1 190744Z 33015KT 03/M01 A3013 RMK A01 T00331006  RH  075%=      5-min Rain = 0
KTA1 190745Z 33017KT 03/M01 A3013 RMK A01 T00331006  RH  076%=      5-min Rain = 0
KTA1 190746Z 33017G22KT 03/M01 A3013 RMK A01 T00331006  RH  076%=      5-min Rain = 0
KTA1 190747Z 32014KT 03/M01 A3013 RMK A01 T00331006  RH  076%=      5-min Rain = 0
KTA1 190748Z 33014KT 03/M01 A3013 RMK A01 T00321006  RH  076%=      5-min Rain = 0
KTA1 190749Z 33014KT 03/M01 A3013 RMK A01 T00321006  RH  076%=      5-min Rain = 0
KTA1 190750Z 33016KT 03/M01 A3013 RMK A01 T00321006  RH  076%=      5-min Rain = 0
KTA1 190751Z 32016KT 03/M01 A3013 RMK A01 T00321006  RH  076%=      5-min Rain = 0
KTA1 190752Z 33013KT 03/M01 A3013 RMK A01 T00321007  RH  076%=      5-min Rain = 0
KTA1 190753Z 33015KT 03/M01 A3013 RMK A01 T00321006  RH  076%=      5-min Rain = 0
KTA1 190754Z 33012KT 03/M01 A3013 RMK A01 T00311006  RH  076%=      5-min Rain = 0
KTA1 190755Z 33014G20KT 03/M01 A3013 RMK A01 T00311007  RH  076%=      5-min Rain = 0
KTA1 190756Z 33015KT 03/M01 A3013 RMK A01 T00311006  RH  076%=      5-min Rain = 0
KTA1 190757Z 33016KT 03/M01 A3013 RMK A01 T00311006  RH  077%=      5-min Rain = 0
KTA1 190758Z 33012KT 03/M01 A3013 RMK A01 T00321006  RH  076%=      5-min Rain = 0
KTA1 190759Z 33014KT 03/M01 A3013 RMK A01 T00321006  RH  076%=      5-min Rain = 0
KTA1 190800Z 32014KT 03/M01 A3013 RMK A01 T00321006  RH  076%=      5-min Rain = 0
KTA1 190801Z 33012KT 03/M01 A3013 RMK A01 T00321006  RH  076%=      5-min Rain = 0
KTA1 190802Z 32015G21KT 03/M01 A3013 RMK A01 T00321005  RH  077%=      5-min Rain = 0
KTA1 190803Z 33014G19KT 03/M01 A3013 RMK A01 T00321005  RH  077%=      5-min Rain = 0
KTA1 190804Z 33016KT 03/M01 A3014 RMK A01 T00321005  RH  076%=      5-min Rain = 0
KTA1 190805Z 33014KT 03/M01 A3014 RMK A01 T00331005  RH  076%=      5-min Rain = 0
KTA1 190806Z 33015KT 03/M01 A3014 RMK A01 T00331005  RH  076%=      5-min Rain = 0
KTA1 190807Z 32013KT 03/M01 A3014 RMK A01 T00331005  RH  076%=      5-min Rain = 0
KTA1 190808Z 33016KT 03/M01 A3014 RMK A01 T00331005  RH  076%=      5-min Rain = 0
KTA1 190809Z 33015KT 03/M01 A3014 RMK A01 T00341005  RH  076%=      5-min Rain = 0
KTA1 190810Z 33016KT 03/M01 A3014 RMK A01 T00341005  RH  076%=      5-min Rain = 0
KTA1 190811Z 33013G18KT 03/M01 A3014 RMK A01 T00341006  RH  075%=      5-min Rain = 0
KTA1 190812Z 33015G21KT 04/M01 A3014 RMK A01 T00351006  RH  075%=      5-min Rain = 0
KTA1 190813Z 33018G24KT 04/M01 A3014 RMK A01 T00351007  RH  074%=      5-min Rain = 0
KTA1 190814Z 33020G25KT 04/M01 A3014 RMK A01 T00361008  RH  073%=      5-min Rain = 0
KTA1 190815Z 33021KT 04/M01 A3014 RMK A01 T00361009  RH  072%=      5-min Rain = 0
KTA1 190816Z 33016KT 04/M01 A3014 RMK A01 T00371009  RH  072%=      5-min Rain = 0
KTA1 190817Z 34015G20KT 04/M01 A3014 RMK A01 T00371010  RH  071%=      5-min Rain = 0
KTA1 190818Z 34017KT 04/M01 A3014 RMK A01 T00371011  RH  071%=      5-min Rain = 0
KTA1 190819Z 33016KT 04/M01 A3014 RMK A01 T00371011  RH  071%=      5-min Rain = 0
KTA1 190820Z 33017KT 04/M01 A3014 RMK A01 T00361011  RH  071%=      5-min Rain = 0
KTA1 190821Z 33017KT 04/M01 A3014 RMK A01 T00361011  RH  071%=      5-min Rain = 0
KTA1 190822Z 33017KT 04/M01 A3014 RMK A01 T00371011  RH  071%=      5-min Rain = 0
KTA1 190823Z 33018G23KT 04/M01 A3014 RMK A01 T00361012  RH  071%=      5-min Rain = 0
KTA1 190824Z 33015G22KT 04/M01 A3014 RMK A01 T00361012  RH  071%=      5-min Rain = 0
KTA1 190825Z 33016KT 04/M01 A3014 RMK A01 T00361012  RH  071%=      5-min Rain = 0
KTA1 190826Z 34017KT 04/M01 A3014 RMK A01 T00361012  RH  071%=      5-min Rain = 0
KTA1 190827Z 34016KT 04/M01 A3014 RMK A01 T00361012  RH  071%=      5-min Rain = 0
KTA1 190828Z 33015KT 04/M01 A3015 RMK A01 T00361011  RH  071%=      5-min Rain = 0
KTA1 190829Z 33014KT 04/M01 A3015 RMK A01 T00351011  RH  072%=      5-min Rain = 0
KTA1 190830Z 33014KT 04/M01 A3015 RMK A01 T00351011  RH  072%=      5-min Rain = 0
KTA1 190831Z 33015KT 04/M01 A3015 RMK A01 T00351010  RH  072%=      5-min Rain = 0
KTA1 190832Z 33014KT 04/M01 A3015 RMK A01 T00351010  RH  073%=      5-min Rain = 0
KTA1 190833Z 33015KT 04/M01 A3015 RMK A01 T00351009  RH  073%=      5-min Rain = 0
KTA1 190834Z 33014KT 04/M01 A3015 RMK A01 T00351008  RH  073%=      5-min Rain = 0
KTA1 190835Z 33013G18KT 04/M01 A3015 RMK A01 T00351007  RH  074%=      5-min Rain = 0
KTA1 190836Z 32018KT 03/M01 A3015 RMK A01 T00341008  RH  074%=      5-min Rain = 0
KTA1 190837Z 32018KT 03/M01 A3015 RMK A01 T00341008  RH  074%=      5-min Rain = 0
KTA1 190838Z 32016KT 04/M01 A3015 RMK A01 T00351008  RH  073%=      5-min Rain = 0
KTA1 190839Z 33015KT 04/M01 A3016 RMK A01 T00351008  RH  073%=      5-min Rain = 0
KTA1 190840Z 33016KT 03/M01 A3016 RMK A01 T00341010  RH  073%=      5-min Rain = 0
KTA1 190841Z 33017KT 03/M01 A3016 RMK A01 T00341013  RH  072%=      5-min Rain = 0
KTA1 190842Z 33019KT 03/M01 A3016 RMK A01 T00341014  RH  071%=      5-min Rain = 0
KTA1 190843Z 33019KT 03/M02 A3016 RMK A01 T00341015  RH  070%=      5-min Rain = 0
KTA1 190844Z 34023G29KT 03/M02 A3016 RMK A01 T00341018  RH  069%=      5-min Rain = 0
KTA1 190845Z 34017KT 04/M02 A3016 RMK A01 T00351020  RH  068%=      5-min Rain = 0
KTA1 190846Z 34017G22KT 03/M02 A3016 RMK A01 T00341020  RH  068%=      5-min Rain = 0
KTA1 190847Z 34016KT 03/M02 A3016 RMK A01 T00331021  RH  067%=      5-min Rain = 0
KTA1 190848Z 34020KT 03/M02 A3016 RMK A01 T00331022  RH  067%=      5-min Rain = 0
KTA1 190849Z 34021G27KT 03/M02 A3017 RMK A01 T00331024  RH  066%=      5-min Rain = 0
KTA1 190850Z 34022G29KT 03/M03 A3017 RMK A01 T00331026  RH  065%=      5-min Rain = 0
KTA1 190851Z 34020KT 03/M03 A3017 RMK A01 T00341026  RH  065%=      5-min Rain = 0
KTA1 190852Z 34020G28KT 03/M03 A3017 RMK A01 T00341026  RH  065%=      5-min Rain = 0
KTA1 190853Z 34022G27KT 03/M03 A3017 RMK A01 T00341026  RH  065%=      5-min Rain = 0
KTA1 190854Z 33020G26KT 03/M03 A3017 RMK A01 T00341027  RH  065%=      5-min Rain = 0
KTA1 190855Z 34020G25KT 03/M03 A3017 RMK A01 T00341027  RH  065%=      5-min Rain = 0
KTA1 190856Z 34017G24KT 03/M03 A3017 RMK A01 T00341027  RH  065%=      5-min Rain = 0
KTA1 190857Z 34015G23KT 03/M03 A3017 RMK A01 T00331027  RH  065%=      5-min Rain = 0
KTA1 190858Z 33018KT 03/M03 A3017 RMK A01 T00331026  RH  065%=      5-min Rain = 0
KTA1 190859Z 34016G21KT 03/M03 A3017 RMK A01 T00321027  RH  065%=      5-min Rain = 0
KTA1 190900Z 34017KT 03/M03 A3017 RMK A01 T00321026  RH  065%=      5-min Rain = 0
KTA1 190901Z 33016KT 03/M03 A3017 RMK A01 T00321026  RH  066%=      5-min Rain = 0
KTA1 190902Z 34016KT 03/M03 A3017 RMK A01 T00321026  RH  066%=      5-min Rain = 0
KTA1 190903Z 34016KT 03/M03 A3017 RMK A01 T00321025  RH  066%=      5-min Rain = 0
KTA1 190904Z 33016KT 03/M03 A3017 RMK A01 T00321025  RH  066%=      5-min Rain = 0
KTA1 190905Z 33013KT 03/M03 A3017 RMK A01 T00311025  RH  067%=      5-min Rain = 0
KTA1 190906Z 33013KT 03/M02 A3018 RMK A01 T00311024  RH  067%=      5-min Rain = 0
KTA1 190907Z 33012KT 03/M02 A3018 RMK A01 T00301024  RH  067%=      5-min Rain = 0
KTA1 190908Z 33014KT 03/M02 A3018 RMK A01 T00301024  RH  067%=      5-min Rain = 0
KTA1 190909Z 33014KT 03/M02 A3018 RMK A01 T00301024  RH  068%=      5-min Rain = 0
KTA1 190910Z 33014KT 03/M02 A3018 RMK A01 T00301024  RH  068%=      5-min Rain = 0
KTA1 190911Z 33012KT 03/M02 A3018 RMK A01 T00301023  RH  068%=      5-min Rain = 0
KTA1 190912Z 32012KT 03/M02 A3018 RMK A01 T00291023  RH  068%=      5-min Rain = 0
KTA1 190913Z 32014KT 03/M02 A3018 RMK A01 T00291023  RH  069%=      5-min Rain = 0
KTA1 190914Z 32013KT 03/M02 A3018 RMK A01 T00281022  RH  069%=      5-min Rain = 0
KTA1 190915Z 32013KT 03/M02 A3018 RMK A01 T00281022  RH  070%=      5-min Rain = 0
KTA1 190916Z 32012KT 03/M02 A3018 RMK A01 T00281022  RH  070%=      5-min Rain = 0
KTA1 190917Z 32013KT 03/M02 A3018 RMK A01 T00281022  RH  070%=      5-min Rain = 0
KTA1 190918Z 32010KT 03/M02 A3018 RMK A01 T00271022  RH  070%=      5-min Rain = 0
KTA1 190919Z 32012KT 03/M02 A3018 RMK A01 T00261022  RH  070%=      5-min Rain = 0
KTA1 190920Z 32011KT 03/M02 A3018 RMK A01 T00261022  RH  071%=      5-min Rain = 0
KTA1 190921Z 32010G16KT 03/M02 A3018 RMK A01 T00251022  RH  071%=      5-min Rain = 0
KTA1 190922Z 31013KT 03/M02 A3018 RMK A01 T00251022  RH  071%=      5-min Rain = 0
KTA1 190923Z 31015KT 03/M02 A3018 RMK A01 T00251021  RH  072%=      5-min Rain = 0
KTA1 190924Z 32015KT 03/M02 A3018 RMK A01 T00261020  RH  072%=      5-min Rain = 0
KTA1 190925Z 31014KT 03/M02 A3018 RMK A01 T00261020  RH  072%=      5-min Rain = 0
KTA1 190926Z 31012KT 03/M02 A3019 RMK A01 T00261020  RH  072%=      5-min Rain = 0
KTA1 190927Z 32015KT 03/M02 A3018 RMK A01 T00261020  RH  072%=      5-min Rain = 0
KTA1 190928Z 32014KT 03/M02 A3019 RMK A01 T00261020  RH  072%=      5-min Rain = 0
KTA1 190929Z 32013KT 03/M02 A3019 RMK A01 T00261019  RH  072%=      5-min Rain = 0
KTA1 190930Z 31012KT 03/M02 A3019 RMK A01 T00261019  RH  072%=      5-min Rain = 0
KTA1 190931Z 32012KT 03/M02 A3019 RMK A01 T00261019  RH  072%=      5-min Rain = 0
KTA1 190932Z 31013KT 03/M02 A3019 RMK A01 T00251019  RH  073%=      5-min Rain = 0
KTA1 190933Z 32015KT 03/M02 A3019 RMK A01 T00251019  RH  073%=      5-min Rain = 0
KTA1 190934Z 32016KT 03/M02 A3019 RMK A01 T00251019  RH  073%=      5-min Rain = 0
KTA1 190935Z 32017KT 03/M02 A3019 RMK A01 T00261020  RH  072%=      5-min Rain = 0
KTA1 190936Z 32014KT 03/M02 A3019 RMK A01 T00261020  RH  072%=      5-min Rain = 0
KTA1 190937Z 32016G21KT 03/M02 A3019 RMK A01 T00261020  RH  071%=      5-min Rain = 0
KTA1 190938Z 32017G22KT 03/M02 A3019 RMK A01 T00261021  RH  071%=      5-min Rain = 0
KTA1 190939Z 32016KT 03/M02 A3019 RMK A01 T00271022  RH  070%=      5-min Rain = 0
KTA1 190940Z 33017KT 03/M02 A3019 RMK A01 T00271022  RH  070%=      5-min Rain = 0
KTA1 190941Z 33016G21KT 03/M02 A3019 RMK A01 T00271023  RH  070%=      5-min Rain = 0
KTA1 190942Z 32019KT 03/M02 A3019 RMK A01 T00271023  RH  070%=      5-min Rain = 0
KTA1 190943Z 33019KT 03/M02 A3019 RMK A01 T00271024  RH  069%=      5-min Rain = 0
KTA1 190944Z 32015KT 03/M02 A3019 RMK A01 T00271024  RH  069%=      5-min Rain = 0
KTA1 190945Z 33016KT 03/M03 A3019 RMK A01 T00271025  RH  069%=      5-min Rain = 0
KTA1 190946Z 33018KT 03/M03 A3019 RMK A01 T00271025  RH  068%=      5-min Rain = 0
KTA1 190947Z 33017KT 03/M03 A3019 RMK A01 T00281025  RH  068%=      5-min Rain = 0
KTA1 190948Z 33015KT 03/M03 A3019 RMK A01 T00271026  RH  068%=      5-min Rain = 0
KTA1 190949Z 33015KT 03/M03 A3019 RMK A01 T00271026  RH  068%=      5-min Rain = 0
KTA1 190950Z 33018KT 03/M03 A3019 RMK A01 T00271026  RH  068%=      5-min Rain = 0
KTA1 190951Z 33017KT 03/M03 A3019 RMK A01 T00271026  RH  068%=      5-min Rain = 0
KTA1 190952Z 33015KT 03/M03 A3019 RMK A01 T00271027  RH  068%=      5-min Rain = 0
KTA1 190953Z 33016KT 03/M03 A3019 RMK A01 T00271027  RH  068%=      5-min Rain = 0
KTA1 190954Z 33014KT 03/M03 A3019 RMK A01 T00271027  RH  068%=      5-min Rain = 0
KTA1 190955Z 33013KT 03/M03 A3019 RMK A01 T00261027  RH  068%=      5-min Rain = 0
KTA1 190956Z 33014KT 03/M03 A3019 RMK A01 T00261027  RH  068%=      5-min Rain = 0
KTA1 190957Z 33013KT 03/M03 A3019 RMK A01 T00251027  RH  069%=      5-min Rain = 0
KTA1 190958Z 33013KT 03/M03 A3019 RMK A01 T00251027  RH  069%=      5-min Rain = 0
KTA1 190959Z 33015KT 03/M03 A3019 RMK A01 T00251027  RH  069%=      5-min Rain = 0
KTA1 191000Z 33014KT 03/M03 A3019 RMK A01 T00251026  RH  069%=      5-min Rain = 0
KTA1 191001Z 33012KT 02/M03 A3019 RMK A01 T00241027  RH  069%=      5-min Rain = 0
KTA1 191002Z 33014KT 02/M03 A3019 RMK A01 T00241027  RH  069%=      5-min Rain = 0
KTA1 191003Z 33012KT 02/M03 A3019 RMK A01 T00241027  RH  069%=      5-min Rain = 0
KTA1 191004Z 33013KT 02/M03 A3019 RMK A01 T00241027  RH  069%=      5-min Rain = 0
KTA1 191005Z 33015G21KT 02/M03 A3019 RMK A01 T00241027  RH  069%=      5-min Rain = 0
KTA1 191006Z 33017KT 02/M03 A3019 RMK A01 T00241027  RH  069%=      5-min Rain = 0
KTA1 191007Z 33016KT 02/M03 A3019 RMK A01 T00241027  RH  069%=      5-min Rain = 0
KTA1 191008Z 33015KT 02/M03 A3019 RMK A01 T00241028  RH  069%=      5-min Rain = 0
KTA1 191009Z 33012KT 02/M03 A3019 RMK A01 T00241027  RH  069%=      5-min Rain = 0
KTA1 191010Z 33016G21KT 02/M03 A3019 RMK A01 T00231027  RH  069%=      5-min Rain = 0
KTA1 191011Z 33015KT 02/M03 A3019 RMK A01 T00241027  RH  069%=      5-min Rain = 0
KTA1 191012Z 33018KT 02/M03 A3019 RMK A01 T00241028  RH  069%=      5-min Rain = 0
KTA1 191013Z 33016KT 03/M03 A3019 RMK A01 T00251028  RH  068%=      5-min Rain = 0
KTA1 191014Z 33016KT 03/M03 A3019 RMK A01 T00251028  RH  068%=      5-min Rain = 0
KTA1 191015Z 34016KT 03/M03 A3019 RMK A01 T00251028  RH  068%=      5-min Rain = 0
KTA1 191016Z 33014KT 03/M03 A302 RMK A01 T00251028  RH  068%=      5-min Rain = 0
KTA1 191017Z 33015G20KT 03/M03 A3019 RMK A01 T00251028  RH  068%=      5-min Rain = 0
KTA1 191018Z 33015KT 02/M03 A302 RMK A01 T00241028  RH  068%=      5-min Rain = 0
KTA1 191019Z 33015KT 02/M03 A3019 RMK A01 T00241028  RH  068%=      5-min Rain = 0
KTA1 191020Z 33013KT 02/M03 A302 RMK A01 T00241028  RH  069%=      5-min Rain = 0
KTA1 191021Z 33014G19KT 02/M03 A3019 RMK A01 T00231028  RH  069%=      5-min Rain = 0
KTA1 191022Z 33014G19KT 02/M03 A302 RMK A01 T00231028  RH  069%=      5-min Rain = 0
KTA1 191023Z 33014G19KT 02/M03 A302 RMK A01 T00231028  RH  069%=      5-min Rain = 0
KTA1 191024Z 33014KT 02/M03 A302 RMK A01 T00231028  RH  069%=      5-min Rain = 0
KTA1 191025Z 33014KT 02/M03 A302 RMK A01 T00231028  RH  069%=      5-min Rain = 0
KTA1 191026Z 33015KT 02/M03 A302 RMK A01 T00231028  RH  069%=      5-min Rain = 0
KTA1 191027Z 33015KT 02/M03 A302 RMK A01 T00231028  RH  069%=      5-min Rain = 0
KTA1 191028Z 33013KT 02/M03 A302 RMK A01 T00221029  RH  069%=      5-min Rain = 0
KTA1 191029Z 33015KT 02/M03 A302 RMK A01 T00221029  RH  069%=      5-min Rain = 0
KTA1 191030Z 33015KT 02/M03 A302 RMK A01 T00221028  RH  069%=      5-min Rain = 0
KTA1 191031Z 33015KT 02/M03 A302 RMK A01 T00221029  RH  069%=      5-min Rain = 0
KTA1 191032Z 33014KT 02/M03 A302 RMK A01 T00221028  RH  069%=      5-min Rain = 0
KTA1 191033Z 32014KT 02/M03 A302 RMK A01 T00211029  RH  069%=      5-min Rain = 0
KTA1 191034Z 32016KT 02/M03 A302 RMK A01 T00211029  RH  070%=      5-min Rain = 0
KTA1 191035Z 32013KT 02/M03 A302 RMK A01 T00211029  RH  070%=      5-min Rain = 0
KTA1 191036Z 32014KT 02/M03 A302 RMK A01 T00211029  RH  070%=      5-min Rain = 0
KTA1 191037Z 32015G20KT 02/M03 A302 RMK A01 T00201029  RH  070%=      5-min Rain = 0
KTA1 191038Z 32015KT 02/M03 A302 RMK A01 T00201029  RH  070%=      5-min Rain = 0
KTA1 191039Z 32015KT 02/M03 A302 RMK A01 T00201029  RH  070%=      5-min Rain = 0
KTA1 191040Z 32016KT 02/M03 A302 RMK A01 T00201029  RH  070%=      5-min Rain = 0
KTA1 191041Z 32016KT 02/M03 A302 RMK A01 T00201029  RH  070%=      5-min Rain = 0
KTA1 191042Z 32016KT 02/M03 A302 RMK A01 T00201029  RH  070%=      5-min Rain = 0
KTA1 191043Z 32016KT 02/M03 A302 RMK A01 T00201029  RH  070%=      5-min Rain = 0
KTA1 191044Z 32015KT 02/M03 A302 RMK A01 T00201029  RH  070%=      5-min Rain = 0
KTA1 191045Z 32017KT 02/M03 A302 RMK A01 T00201029  RH  070%=      5-min Rain = 0
KTA1 191046Z 33017KT 02/M03 A302 RMK A01 T00201029  RH  070%=      5-min Rain = 0
KTA1 191047Z 32015KT 02/M03 A302 RMK A01 T00201029  RH  070%=      5-min Rain = 0
KTA1 191048Z 33014KT 02/M03 A302 RMK A01 T00211028  RH  070%=      5-min Rain = 0
KTA1 191049Z 32015G21KT 02/M03 A302 RMK A01 T00211029  RH  070%=      5-min Rain = 0
KTA1 191050Z 32015KT 02/M03 A302 RMK A01 T00211029  RH  070%=      5-min Rain = 0
KTA1 191051Z 32017KT 02/M03 A302 RMK A01 T00211028  RH  070%=      5-min Rain = 0
KTA1 191052Z 32017KT 02/M03 A302 RMK A01 T00211029  RH  070%=      5-min Rain = 0
KTA1 191053Z 32017KT 02/M03 A302 RMK A01 T00211028  RH  070%=      5-min Rain = 0
KTA1 191054Z 33016KT 02/M03 A302 RMK A01 T00211028  RH  070%=      5-min Rain = 0
KTA1 191055Z 32015KT 02/M03 A302 RMK A01 T00211029  RH  070%=      5-min Rain = 0
KTA1 191056Z 32015KT 02/M03 A3021 RMK A01 T00211028  RH  070%=      5-min Rain = 0
KTA1 191057Z 32016KT 02/M03 A302 RMK A01 T00211029  RH  070%=      5-min Rain = 0
KTA1 191058Z 32016KT 02/M03 A302 RMK A01 T00211028  RH  070%=      5-min Rain = 0
KTA1 191059Z 32017G22KT 02/M03 A302 RMK A01 T00211028  RH  070%=      5-min Rain = 0
KTA1 191100Z 33017KT 02/M03 A302 RMK A01 T00211029  RH  070%=      5-min Rain = 0
KTA1 191101Z 32016KT 02/M03 A302 RMK A01 T00211029  RH  070%=      5-min Rain = 0
KTA1 191102Z 33018KT 02/M03 A302 RMK A01 T00211029  RH  070%=      5-min Rain = 0
KTA1 191103Z 33017KT 02/M03 A3021 RMK A01 T00211029  RH  069%=      5-min Rain = 0
KTA1 191104Z 33017KT 02/M03 A3021 RMK A01 T00211030  RH  069%=      5-min Rain = 0
KTA1 191105Z 32017G22KT 02/M03 A302 RMK A01 T00221030  RH  069%=      5-min Rain = 0
KTA1 191106Z 32017KT 02/M03 A302 RMK A01 T00221030  RH  069%=      5-min Rain = 0
KTA1 191107Z 32017KT 02/M03 A302 RMK A01 T00221030  RH  068%=      5-min Rain = 0
KTA1 191108Z 32016KT 02/M03 A3021 RMK A01 T00221030  RH  068%=      5-min Rain = 0
KTA1 191109Z 32017KT 02/M03 A3021 RMK A01 T00221030  RH  069%=      5-min Rain = 0
KTA1 191110Z 32015KT 02/M03 A3021 RMK A01 T00221030  RH  069%=      5-min Rain = 0
KTA1 191111Z 32017KT 02/M03 A3021 RMK A01 T00211030  RH  069%=      5-min Rain = 0
KTA1 191112Z 32016KT 02/M03 A3021 RMK A01 T00211030  RH  069%=      5-min Rain = 0
KTA1 191113Z 32013G18KT 02/M03 A3021 RMK A01 T00211030  RH  069%=      5-min Rain = 0
KTA1 191114Z 32014KT 02/M03 A3021 RMK A01 T00211030  RH  069%=      5-min Rain = 0
KTA1 191115Z 32015KT 02/M03 A3021 RMK A01 T00201030  RH  069%=      5-min Rain = 0
KTA1 191116Z 32014KT 02/M03 A3021 RMK A01 T00201030  RH  069%=      5-min Rain = 0
KTA1 191117Z 32015G20KT 02/M03 A3021 RMK A01 T00201030  RH  069%=      5-min Rain = 0
KTA1 191118Z 32014KT 02/M03 A3021 RMK A01 T00201030  RH  069%=      5-min Rain = 0
KTA1 191119Z 32014KT 02/M03 A3021 RMK A01 T00191030  RH  070%=      5-min Rain = 0
KTA1 191120Z 33015KT 02/M03 A3021 RMK A01 T00191031  RH  070%=      5-min Rain = 0
KTA1 191121Z 33016KT 02/M03 A3021 RMK A01 T00191031  RH  070%=      5-min Rain = 0
KTA1 191122Z 33014G19KT 02/M03 A3021 RMK A01 T00191031  RH  069%=      5-min Rain = 0
KTA1 191123Z 33014KT 02/M03 A3021 RMK A01 T00201031  RH  069%=      5-min Rain = 0
KTA1 191124Z 33014KT 02/M03 A3021 RMK A01 T00191031  RH  069%=      5-min Rain = 0
KTA1 191125Z 33014KT 02/M03 A302 RMK A01 T00191031  RH  069%=      5-min Rain = 0
KTA1 191126Z 33012KT 02/M03 A302 RMK A01 T00191031  RH  069%=      5-min Rain = 0
KTA1 191127Z 33014KT 02/M03 A302 RMK A01 T00191031  RH  069%=      5-min Rain = 0
KTA1 191128Z 33013KT 02/M03 A302 RMK A01 T00191031  RH  069%=      5-min Rain = 0
KTA1 191129Z 33014KT 02/M03 A302 RMK A01 T00201031  RH  069%=      5-min Rain = 0
KTA1 191130Z 33016KT 02/M03 A302 RMK A01 T00201031  RH  069%=      5-min Rain = 0
KTA1 191131Z 33013KT 02/M03 A302 RMK A01 T00201031  RH  069%=      5-min Rain = 0
KTA1 191132Z 33015KT 02/M03 A302 RMK A01 T00201031  RH  069%=      5-min Rain = 0
KTA1 191133Z 33016KT 02/M03 A302 RMK A01 T00201031  RH  069%=      5-min Rain = 0
KTA1 191134Z 33015KT 02/M03 A302 RMK A01 T00201031  RH  069%=      5-min Rain = 0
KTA1 191135Z 32016KT 02/M03 A302 RMK A01 T00201031  RH  069%=      5-min Rain = 0
KTA1 191136Z 32015KT 02/M03 A3021 RMK A01 T00201031  RH  069%=      5-min Rain = 0
KTA1 191137Z 32015KT 02/M03 A3021 RMK A01 T00201031  RH  069%=      5-min Rain = 0
KTA1 191138Z 32014KT 02/M03 A3021 RMK A01 T00201031  RH  069%=      5-min Rain = 0
KTA1 191139Z 32015KT 02/M03 A3021 RMK A01 T00201031  RH  069%=      5-min Rain = 0
KTA1 191140Z 32012KT 02/M03 A3021 RMK A01 T00191031  RH  069%=      5-min Rain = 0
KTA1 191141Z 32014KT 02/M03 A3021 RMK A01 T00191031  RH  070%=      5-min Rain = 0
KTA1 191142Z 32014KT 02/M03 A3021 RMK A01 T00191031  RH  070%=      5-min Rain = 0
KTA1 191143Z 32014KT 02/M03 A3021 RMK A01 T00191031  RH  070%=      5-min Rain = 0
KTA1 191144Z 32014KT 02/M03 A3021 RMK A01 T00191031  RH  070%=      5-min Rain = 0
KTA1 191145Z 32014KT 02/M03 A3021 RMK A01 T00191031  RH  070%=      5-min Rain = 0
KTA1 191146Z 32014KT 02/M03 A3021 RMK A01 T00191031  RH  070%=      5-min Rain = 0
KTA1 191147Z 32014KT 02/M03 A3021 RMK A01 T00191031  RH  070%=      5-min Rain = 0
KTA1 191148Z 32015KT 02/M03 A3021 RMK A01 T00191031  RH  070%=      5-min Rain = 0
KTA1 191149Z 32016G21KT 02/M03 A3021 RMK A01 T00191031  RH  070%=      5-min Rain = 0
KTA1 191150Z 33016KT 02/M03 A3021 RMK A01 T00201031  RH  069%=      5-min Rain = 0
KTA1 191151Z 32016KT 02/M03 A3021 RMK A01 T00201031  RH  069%=      5-min Rain = 0
KTA1 191152Z 33015KT 02/M03 A3021 RMK A01 T00201031  RH  069%=      5-min Rain = 0
KTA1 191153Z 33014KT 02/M03 A3021 RMK A01 T00201031  RH  069%=      5-min Rain = 0
KTA1 191154Z 33014KT 02/M03 A3021 RMK A01 T00201031  RH  069%=      5-min Rain = 0
KTA1 191155Z 33014KT 02/M03 A3021 RMK A01 T00201031  RH  069%=      5-min Rain = 0
KTA1 191156Z 33017KT 02/M03 A3021 RMK A01 T00211030  RH  069%=      5-min Rain = 0
KTA1 191157Z 33016KT 02/M03 A3021 RMK A01 T00221030  RH  069%=      5-min Rain = 0
KTA1 191158Z 33016KT 02/M03 A3021 RMK A01 T00221030  RH  068%=      5-min Rain = 0
KTA1 191159Z 33016KT 02/M03 A3021 RMK A01 T00221031  RH  068%=      5-min Rain = 0
KTA1 191200Z 33016KT 02/M03 A3021 RMK A01 T00231030  RH  068%=      5-min Rain = 0
KTA1 191201Z 33015G20KT 02/M03 A3021 RMK A01 T00231031  RH  068%=      5-min Rain = 0
KTA1 191202Z 33015KT 02/M03 A3022 RMK A01 T00231031  RH  067%=      5-min Rain = 0
KTA1 191203Z 33015KT 02/M03 A3022 RMK A01 T00231031  RH  067%=      5-min Rain = 0
KTA1 191204Z 33015KT 02/M03 A3022 RMK A01 T00241031  RH  067%=      5-min Rain = 0
KTA1 191205Z 34014KT 02/M03 A3022 RMK A01 T00241031  RH  067%=      5-min Rain = 0
KTA1 191206Z 34013KT 02/M03 A3022 RMK A01 T00241030  RH  067%=      5-min Rain = 0
KTA1 191207Z 33014KT 02/M03 A3022 RMK A01 T00231031  RH  068%=      5-min Rain = 0
KTA1 191208Z 33014KT 02/M03 A3022 RMK A01 T00231030  RH  068%=      5-min Rain = 0
KTA1 191209Z 33016KT 02/M03 A3022 RMK A01 T00231031  RH  068%=      5-min Rain = 0
KTA1 191210Z 33014KT 02/M03 A3022 RMK A01 T00231031  RH  068%=      5-min Rain = 0
KTA1 191211Z 33014KT 02/M03 A3023 RMK A01 T00231031  RH  068%=      5-min Rain = 0
KTA1 191212Z 33013KT 02/M03 A3023 RMK A01 T00241030  RH  068%=      5-min Rain = 0
KTA1 191213Z 33014KT 02/M03 A3023 RMK A01 T00231030  RH  068%=      5-min Rain = 0
KTA1 191214Z 33013KT 02/M03 A3023 RMK A01 T00241030  RH  068%=      5-min Rain = 0
KTA1 191215Z 33012KT 02/M03 A3023 RMK A01 T00231031  RH  068%=      5-min Rain = 0
KTA1 191216Z 33011KT 02/M03 A3023 RMK A01 T00231031  RH  068%=      5-min Rain = 0
KTA1 191217Z 33012KT 02/M03 A3023 RMK A01 T00231030  RH  068%=      5-min Rain = 0
KTA1 191218Z 33015KT 02/M03 A3023 RMK A01 T00231031  RH  068%=      5-min Rain = 0
KTA1 191219Z 33014KT 02/M03 A3023 RMK A01 T00231031  RH  068%=      5-min Rain = 0
KTA1 191220Z 33011KT 02/M03 A3023 RMK A01 T00231031  RH  068%=      5-min Rain = 0
KTA1 191221Z 33012KT 02/M03 A3023 RMK A01 T00231031  RH  068%=      5-min Rain = 0
KTA1 191222Z 33013KT 02/M03 A3023 RMK A01 T00231031  RH  068%=      5-min Rain = 0
KTA1 191223Z 33011KT 02/M03 A3023 RMK A01 T00231031  RH  068%=      5-min Rain = 0
KTA1 191224Z 33012KT 02/M03 A3024 RMK A01 T00231030  RH  068%=      5-min Rain = 0
KTA1 191225Z 33012KT 02/M03 A3024 RMK A01 T00231030  RH  068%=      5-min Rain = 0
KTA1 191226Z 33012KT 02/M03 A3024 RMK A01 T00221031  RH  068%=      5-min Rain = 0
KTA1 191227Z 33011KT 02/M03 A3024 RMK A01 T00221030  RH  068%=      5-min Rain = 0
KTA1 191228Z 33011KT 02/M03 A3024 RMK A01 T00221030  RH  068%=      5-min Rain = 0
KTA1 191229Z 33011KT 02/M03 A3024 RMK A01 T00211031  RH  068%=      5-min Rain = 0
KTA1 191230Z 33013KT 02/M03 A3024 RMK A01 T00211031  RH  068%=      5-min Rain = 0
KTA1 191231Z 33010KT 02/M03 A3024 RMK A01 T00221031  RH  068%=      5-min Rain = 0
KTA1 191232Z 33010KT 02/M03 A3024 RMK A01 T00221030  RH  068%=      5-min Rain = 0
KTA1 191233Z 33011KT 02/M03 A3024 RMK A01 T00211031  RH  069%=      5-min Rain = 0
KTA1 191234Z 33010KT 02/M03 A3024 RMK A01 T00211031  RH  069%=      5-min Rain = 0
KTA1 191235Z 33010KT 02/M03 A3024 RMK A01 T00211030  RH  069%=      5-min Rain = 0
KTA1 191236Z 32010KT 02/M03 A3024 RMK A01 T00211031  RH  069%=      5-min Rain = 0
KTA1 191237Z 32010KT 02/M03 A3024 RMK A01 T00201031  RH  069%=      5-min Rain = 0
KTA1 191238Z 32010KT 02/M03 A3024 RMK A01 T00201031  RH  069%=      5-min Rain = 0
KTA1 191239Z 32009KT 02/M03 A3025 RMK A01 T00191031  RH  069%=      5-min Rain = 0
KTA1 191240Z 32008KT 02/M03 A3025 RMK A01 T00181031  RH  069%=      5-min Rain = 0
KTA1 191241Z 32008KT 02/M03 A3025 RMK A01 T00181032  RH  070%=      5-min Rain = 0
KTA1 191242Z 32008KT 02/M03 A3025 RMK A01 T00171032  RH  070%=      5-min Rain = 0
KTA1 191243Z 32008KT 02/M03 A3025 RMK A01 T00171031  RH  070%=      5-min Rain = 0
KTA1 191244Z 32009KT 02/M03 A3025 RMK A01 T00171031  RH  071%=      5-min Rain = 0
KTA1 191245Z 31008KT 02/M03 A3025 RMK A01 T00161031  RH  071%=      5-min Rain = 0
KTA1 191246Z 31008KT 02/M03 A3025 RMK A01 T00161032  RH  071%=      5-min Rain = 0
KTA1 191247Z 31008KT 02/M03 A3025 RMK A01 T00151031  RH  071%=      5-min Rain = 0
KTA1 191248Z 31008KT 01/M03 A3025 RMK A01 T00141032  RH  071%=      5-min Rain = 0
KTA1 191249Z 31008KT 01/M03 A3025 RMK A01 T00141032  RH  072%=      5-min Rain = 0
KTA1 191250Z 31008KT 01/M03 A3025 RMK A01 T00131032  RH  072%=      5-min Rain = 0
KTA1 191251Z 31008KT 01/M03 A3025 RMK A01 T00131032  RH  072%=      5-min Rain = 0
KTA1 191252Z 31008KT 01/M03 A3025 RMK A01 T00131032  RH  072%=      5-min Rain = 0
KTA1 191253Z 31008KT 01/M03 A3025 RMK A01 T00121032  RH  072%=      5-min Rain = 0
KTA1 191254Z 31008KT 01/M03 A3025 RMK A01 T00121032  RH  073%=      5-min Rain = 0
KTA1 191255Z 31008KT 01/M03 A3025 RMK A01 T00121032  RH  073%=      5-min Rain = 0
KTA1 191256Z 32007KT 01/M03 A3025 RMK A01 T00121032  RH  073%=      5-min Rain = 0
KTA1 191257Z 31007KT 01/M03 A3025 RMK A01 T00121032  RH  073%=      5-min Rain = 0
KTA1 191258Z 31007KT 01/M03 A3025 RMK A01 T00121032  RH  073%=      5-min Rain = 0
KTA1 191259Z 31008KT 01/M03 A3025 RMK A01 T00121032  RH  073%=      5-min Rain = 0
KTA1 191300Z 31007KT 01/M03 A3025 RMK A01 T00111032  RH  073%=      5-min Rain = 0
KTA1 191301Z 31008KT 01/M03 A3026 RMK A01 T00111032  RH  073%=      5-min Rain = 0
KTA1 191302Z 31008KT 01/M03 A3026 RMK A01 T00111032  RH  073%=      5-min Rain = 0
KTA1 191303Z 31008KT 01/M03 A3026 RMK A01 T00101033  RH  073%=      5-min Rain = 0
KTA1 191304Z 30007KT 01/M03 A3026 RMK A01 T00091033  RH  073%=      5-min Rain = 0
KTA1 191305Z 31007KT 01/M03 A3026 RMK A01 T00091033  RH  074%=      5-min Rain = 0
KTA1 191306Z 30007KT 01/M03 A3026 RMK A01 T00081033  RH  074%=      5-min Rain = 0
KTA1 191307Z 30007KT 01/M03 A3026 RMK A01 T00081033  RH  074%=      5-min Rain = 0
KTA1 191308Z 30007KT 01/M03 A3026 RMK A01 T00081033  RH  074%=      5-min Rain = 0
KTA1 191309Z 30007KT 01/M03 A3026 RMK A01 T00071033  RH  074%=      5-min Rain = 0
KTA1 191310Z 30007KT 01/M03 A3026 RMK A01 T00071033  RH  075%=      5-min Rain = 0
KTA1 191311Z 30007KT 01/M03 A3026 RMK A01 T00061033  RH  075%=      5-min Rain = 0
KTA1 191312Z 30007KT 01/M03 A3027 RMK A01 T00061033  RH  075%=      5-min Rain = 0
KTA1 191313Z 30007KT 01/M03 A3027 RMK A01 T00061033  RH  075%=      5-min Rain = 0
KTA1 191314Z 30007KT 01/M03 A3027 RMK A01 T00051033  RH  075%=      5-min Rain = 0
KTA1 191315Z 30007KT 01/M03 A3027 RMK A01 T00051033  RH  075%=      5-min Rain = 0
KTA1 191316Z 30008KT 01/M03 A3027 RMK A01 T00051034  RH  075%=      5-min Rain = 0
KTA1 191317Z 30008KT 01/M03 A3027 RMK A01 T00051033  RH  076%=      5-min Rain = 0
KTA1 191318Z 30008KT 01/M03 A3027 RMK A01 T00051033  RH  076%=      5-min Rain = 0
KTA1 191319Z 30007KT 01/M03 A3027 RMK A01 T00051034  RH  076%=      5-min Rain = 0
KTA1 191320Z 30007KT 01/M03 A3027 RMK A01 T00051034  RH  075%=      5-min Rain = 0
KTA1 191321Z 30007KT 01/M03 A3027 RMK A01 T00051033  RH  076%=      5-min Rain = 0
KTA1 191322Z 30007KT 01/M03 A3027 RMK A01 T00051033  RH  076%=      5-min Rain = 0
KTA1 191323Z 30008KT 01/M03 A3027 RMK A01 T00051033  RH  076%=      5-min Rain = 0
KTA1 191324Z 30008KT 01/M03 A3027 RMK A01 T00061033  RH  076%=      5-min Rain = 0
KTA1 191325Z 30008KT 01/M03 A3027 RMK A01 T00061033  RH  075%=      5-min Rain = 0
KTA1 191326Z 30008KT 01/M03 A3027 RMK A01 T00061032  RH  076%=      5-min Rain = 0
KTA1 191327Z 30007KT 01/M03 A3027 RMK A01 T00061032  RH  076%=      5-min Rain = 0
KTA1 191328Z 30007KT 01/M03 A3027 RMK A01 T00061032  RH  076%=      5-min Rain = 0
KTA1 191329Z 30007KT 01/M03 A3027 RMK A01 T00061032  RH  076%=      5-min Rain = 0
KTA1 191330Z 30007KT 01/M03 A3027 RMK A01 T00061032  RH  075%=      5-min Rain = 0
KTA1 191331Z 30007KT 01/M03 A3027 RMK A01 T00061032  RH  075%=      5-min Rain = 0
KTA1 191332Z 30008KT 01/M03 A3027 RMK A01 T00061032  RH  075%=      5-min Rain = 0
KTA1 191333Z 30008KT 01/M03 A3028 RMK A01 T00061032  RH  075%=      5-min Rain = 0
KTA1 191334Z 30007KT 01/M03 A3028 RMK A01 T00061032  RH  075%=      5-min Rain = 0
KTA1 191335Z 30008KT 01/M03 A3028 RMK A01 T00061032  RH  075%=      5-min Rain = 0
KTA1 191336Z 30008KT 01/M03 A3028 RMK A01 T00061032  RH  076%=      5-min Rain = 0
KTA1 191337Z 30008KT 01/M03 A3028 RMK A01 T00061032  RH  076%=      5-min Rain = 0
KTA1 191338Z 30008KT 01/M03 A3028 RMK A01 T00061032  RH  076%=      5-min Rain = 0
KTA1 191339Z 30008KT 01/M03 A3028 RMK A01 T00061032  RH  076%=      5-min Rain = 0
KTA1 191340Z 30009KT 01/M03 A3028 RMK A01 T00051032  RH  076%=      5-min Rain = 0
KTA1 191341Z 29008KT 01/M03 A3028 RMK A01 T00051032  RH  076%=      5-min Rain = 0
KTA1 191342Z 29008KT 01/M03 A3028 RMK A01 T00051033  RH  076%=      5-min Rain = 0
KTA1 191343Z 29009KT 01/M03 A3028 RMK A01 T00051032  RH  076%=      5-min Rain = 0
KTA1 191344Z 29009KT 01/M03 A3028 RMK A01 T00061032  RH  076%=      5-min Rain = 0
KTA1 191345Z 29009KT 01/M03 A3028 RMK A01 T00061032  RH  076%=      5-min Rain = 0
KTA1 191346Z 29008KT 01/M03 A3028 RMK A01 T00071032  RH  076%=      5-min Rain = 0
KTA1 191347Z 29009KT 01/M03 A3028 RMK A01 T00071032  RH  075%=      5-min Rain = 0
KTA1 191348Z 29009KT 01/M03 A3028 RMK A01 T00071031  RH  075%=      5-min Rain = 0
KTA1 191349Z 29008KT 01/M03 A3029 RMK A01 T00071031  RH  075%=      5-min Rain = 0
KTA1 191350Z 29008KT 01/M03 A3029 RMK A01 T00071032  RH  075%=      5-min Rain = 0
KTA1 191351Z 29008KT 01/M03 A3029 RMK A01 T00081031  RH  075%=      5-min Rain = 0
KTA1 191352Z 29008KT 01/M03 A3029 RMK A01 T00081031  RH  075%=      5-min Rain = 0
KTA1 191353Z 29009KT 01/M03 A3029 RMK A01 T00081031  RH  075%=      5-min Rain = 0
KTA1 191354Z 29009KT 01/M03 A3029 RMK A01 T00081031  RH  075%=      5-min Rain = 0
KTA1 191355Z 29008KT 01/M03 A3029 RMK A01 T00081031  RH  075%=      5-min Rain = 0
KTA1 191356Z 28008KT 01/M03 A3029 RMK A01 T00081031  RH  075%=      5-min Rain = 0
KTA1 191357Z 28008KT 01/M03 A3029 RMK A01 T00081031  RH  075%=      5-min Rain = 0
KTA1 191358Z 28008KT 01/M03 A3029 RMK A01 T00071032  RH  075%=      5-min Rain = 0
KTA1 191359Z 28008KT 01/M03 A3029 RMK A01 T00061033  RH  075%=      5-min Rain = 0
KTA1 191400Z 28008KT 01/M03 A3029 RMK A01 T00051033  RH  076%=      5-min Rain = 0
KTA1 191401Z 28008KT 00/M03 A3029 RMK A01 T00041033  RH  076%=      5-min Rain = 0
KTA1 191402Z 28009KT 00/M03 A3029 RMK A01 T00031033  RH  076%=      5-min Rain = 0
KTA1 191403Z 28009KT 00/M03 A303 RMK A01 T00031033  RH  077%=      5-min Rain = 0
KTA1 191404Z 28009KT 00/M03 A303 RMK A01 T00031033  RH  077%=      5-min Rain = 0
KTA1 191405Z 29008KT 00/M03 A303 RMK A01 T00031033  RH  077%=      5-min Rain = 0
KTA1 191406Z 29008KT 00/M03 A303 RMK A01 T00031033  RH  077%=      5-min Rain = 0
KTA1 191407Z 29008KT 00/M03 A303 RMK A01 T00031033  RH  077%=      5-min Rain = 0
KTA1 191408Z 29008KT 00/M03 A303 RMK A01 T00041033  RH  077%=      5-min Rain = 0
KTA1 191409Z 29007KT 00/M03 A303 RMK A01 T00041032  RH  076%=      5-min Rain = 0
KTA1 191410Z 29008KT 01/M03 A303 RMK A01 T00051032  RH  076%=      5-min Rain = 0
KTA1 191411Z 29007KT 01/M03 A303 RMK A01 T00051032  RH  076%=      5-min Rain = 0
KTA1 191412Z 28008KT 01/M03 A303 RMK A01 T00051032  RH  076%=      5-min Rain = 0
KTA1 191413Z 29008KT 01/M03 A303 RMK A01 T00051032  RH  076%=      5-min Rain = 0
KTA1 191414Z 29008KT 01/M03 A303 RMK A01 T00051033  RH  076%=      5-min Rain = 0
KTA1 191415Z 29008KT 01/M03 A303 RMK A01 T00051032  RH  076%=      5-min Rain = 0
KTA1 191416Z 28008KT 01/M03 A303 RMK A01 T00061032  RH  076%=      5-min Rain = 0
KTA1 191417Z 29008KT 01/M03 A303 RMK A01 T00061032  RH  076%=      5-min Rain = 0
KTA1 191418Z 29008KT 01/M03 A303 RMK A01 T00061032  RH  075%=      5-min Rain = 0
KTA1 191419Z 29009KT 01/M03 A3031 RMK A01 T00071032  RH  075%=      5-min Rain = 0
KTA1 191420Z 29008KT 01/M03 A3031 RMK A01 T00071032  RH  075%=      5-min Rain = 0
KTA1 191421Z 29008KT 01/M03 A3031 RMK A01 T00081032  RH  075%=      5-min Rain = 0
KTA1 191422Z 29008KT 01/M03 A3031 RMK A01 T00081032  RH  075%=      5-min Rain = 0
KTA1 191423Z 29008KT 01/M03 A3031 RMK A01 T00091032  RH  074%=      5-min Rain = 0
KTA1 191424Z 29008KT 01/M03 A3031 RMK A01 T00091031  RH  074%=      5-min Rain = 0
KTA1 191425Z 29008KT 01/M03 A3031 RMK A01 T00101031  RH  074%=      5-min Rain = 0
KTA1 191426Z 29009KT 01/M03 A3031 RMK A01 T00101031  RH  074%=      5-min Rain = 0
KTA1 191427Z 29008KT 01/M03 A3031 RMK A01 T00111031  RH  074%=      5-min Rain = 0
KTA1 191428Z 29008KT 01/M03 A3031 RMK A01 T00121030  RH  073%=      5-min Rain = 0
KTA1 191429Z 29009KT 01/M03 A3031 RMK A01 T00121030  RH  073%=      5-min Rain = 0
KTA1 191430Z 29008KT 01/M03 A3031 RMK A01 T00121030  RH  073%=      5-min Rain = 0
KTA1 191431Z 29007KT 01/M03 A3031 RMK A01 T00131030  RH  073%=      5-min Rain = 0
KTA1 191432Z 30007KT 01/M03 A3031 RMK A01 T00141030  RH  073%=      5-min Rain = 0
KTA1 191433Z 30008KT 02/M03 A3031 RMK A01 T00151029  RH  073%=      5-min Rain = 0
KTA1 191434Z 30008KT 02/M03 A3031 RMK A01 T00151029  RH  072%=      5-min Rain = 0
KTA1 191435Z 30008KT 02/M03 A3031 RMK A01 T00161029  RH  072%=      5-min Rain = 0
KTA1 191436Z 30008KT 02/M03 A3031 RMK A01 T00171029  RH  072%=      5-min Rain = 0
KTA1 191437Z 30007KT 02/M03 A3031 RMK A01 T00171028  RH  072%=      5-min Rain = 0
KTA1 191438Z 30008KT 02/M03 A3031 RMK A01 T00181028  RH  072%=      5-min Rain = 0
KTA1 191439Z 30006KT 02/M03 A3031 RMK A01 T00181028  RH  071%=      5-min Rain = 0
KTA1 191440Z 30007KT 02/M03 A3031 RMK A01 T00191027  RH  071%=      5-min Rain = 0
KTA1 191441Z 30006KT 02/M03 A3031 RMK A01 T00201027  RH  071%=      5-min Rain = 0
KTA1 191442Z 31007KT 02/M03 A3031 RMK A01 T00201027  RH  071%=      5-min Rain = 0
KTA1 191443Z 30007KT 02/M03 A3031 RMK A01 T00211027  RH  071%=      5-min Rain = 0
KTA1 191444Z 30007KT 02/M03 A3032 RMK A01 T00211026  RH  071%=      5-min Rain = 0
KTA1 191445Z 30006KT 02/M03 A3032 RMK A01 T00221026  RH  070%=      5-min Rain = 0
KTA1 191446Z 30008KT 02/M03 A3032 RMK A01 T00241025  RH  070%=      5-min Rain = 0
KTA1 191447Z 30007KT 02/M03 A3032 RMK A01 T00241026  RH  070%=      5-min Rain = 0
KTA1 191448Z 31008KT 03/M03 A3032 RMK A01 T00251025  RH  069%=      5-min Rain = 0
KTA1 191449Z 31008KT 03/M03 A3032 RMK A01 T00271025  RH  069%=      5-min Rain = 0
KTA1 191450Z 31007KT 03/M03 A3032 RMK A01 T00271025  RH  068%=      5-min Rain = 0
KTA1 191451Z 31009KT 03/M02 A3032 RMK A01 T00291024  RH  068%=      5-min Rain = 0
KTA1 191452Z 31010KT 03/M03 A3032 RMK A01 T00301025  RH  067%=      5-min Rain = 0
KTA1 191453Z 31011KT 03/M03 A3032 RMK A01 T00311026  RH  067%=      5-min Rain = 0
KTA1 191454Z 31009KT 03/M03 A3032 RMK A01 T00311026  RH  066%=      5-min Rain = 0
KTA1 191455Z 31010KT 03/M03 A3032 RMK A01 T00311025  RH  066%=      5-min Rain = 0
KTA1 191456Z 31011KT 03/M03 A3032 RMK A01 T00311026  RH  066%=      5-min Rain = 0
KTA1 191457Z 31011KT 03/M03 A3032 RMK A01 T00311027  RH  066%=      5-min Rain = 0
KTA1 191458Z 30010KT 03/M03 A3032 RMK A01 T00321026  RH  066%=      5-min Rain = 0
KTA1 191459Z 31011KT 03/M03 A3032 RMK A01 T00321026  RH  066%=      5-min Rain = 0
KTA1 191500Z 30011KT 03/M03 A3032 RMK A01 T00321026  RH  065%=      5-min Rain = 0
KTA1 191501Z 31011KT 03/M03 A3032 RMK A01 T00321026  RH  065%=      5-min Rain = 0
KTA1 191502Z 31011KT 03/M03 A3032 RMK A01 T00331026  RH  065%=      5-min Rain = 0
KTA1 191503Z 31009KT 03/M03 A3032 RMK A01 T00331026  RH  065%=      5-min Rain = 0
KTA1 191504Z 31010KT 03/M03 A3032 RMK A01 T00331025  RH  066%=      5-min Rain = 0
KTA1 191505Z 31011KT 03/M03 A3032 RMK A01 T00341025  RH  065%=      5-min Rain = 0
KTA1 191506Z 31010KT 03/M03 A3032 RMK A01 T00341025  RH  065%=      5-min Rain = 0
KTA1 191507Z 31009KT 04/M02 A3032 RMK A01 T00351024  RH  065%=      5-min Rain = 0
KTA1 191508Z 31010KT 04/M02 A3032 RMK A01 T00351024  RH  065%=      5-min Rain = 0
KTA1 191509Z 32010KT 04/M02 A3032 RMK A01 T00361023  RH  065%=      5-min Rain = 0
KTA1 191510Z 31010KT 04/M02 A3032 RMK A01 T00371024  RH  064%=      5-min Rain = 0
KTA1 191511Z 31011KT 04/M02 A3032 RMK A01 T00391024  RH  064%=      5-min Rain = 0
KTA1 191512Z 32011KT 04/M03 A3032 RMK A01 T00391025  RH  063%=      5-min Rain = 0
KTA1 191513Z 32013KT 04/M02 A3032 RMK A01 T00401024  RH  063%=      5-min Rain = 0
KTA1 191514Z 32012KT 04/M03 A3032 RMK A01 T00411025  RH  062%=      5-min Rain = 0
KTA1 191515Z 32013KT 04/M03 A3033 RMK A01 T00421025  RH  062%=      5-min Rain = 0
KTA1 191516Z 32013KT 04/M03 A3033 RMK A01 T00421026  RH  062%=      5-min Rain = 0
KTA1 191517Z 32014KT 04/M03 A3033 RMK A01 T00421026  RH  061%=      5-min Rain = 0
KTA1 191518Z 32012KT 04/M03 A3033 RMK A01 T00421026  RH  061%=      5-min Rain = 0
KTA1 191519Z 32010KT 04/M03 A3033 RMK A01 T00421026  RH  061%=      5-min Rain = 0
KTA1 191520Z 32012KT 04/M02 A3033 RMK A01 T00431024  RH  061%=      5-min Rain = 0
KTA1 191521Z 33013KT 04/M03 A3033 RMK A01 T00441025  RH  061%=      5-min Rain = 0
KTA1 191522Z 33012KT 04/M03 A3033 RMK A01 T00441025  RH  061%=      5-min Rain = 0
KTA1 191523Z 33011KT 05/M02 A3033 RMK A01 T00451024  RH  061%=      5-min Rain = 0
KTA1 191524Z 33012KT 05/M02 A3033 RMK A01 T00461023  RH  061%=      5-min Rain = 0
KTA1 191525Z 33013KT 05/M03 A3033 RMK A01 T00471025  RH  060%=      5-min Rain = 0
KTA1 191526Z 33016KT 05/M03 A3033 RMK A01 T00471026  RH  059%=      5-min Rain = 0
KTA1 191527Z 33014KT 05/M03 A3033 RMK A01 T00471027  RH  058%=      5-min Rain = 0
KTA1 191528Z 33013KT 05/M03 A3033 RMK A01 T00481026  RH  058%=      5-min Rain = 0
KTA1 191529Z 33013KT 05/M03 A3033 RMK A01 T00491026  RH  058%=      5-min Rain = 0
KTA1 191530Z 33015KT 05/M03 A3033 RMK A01 T00501026  RH  058%=      5-min Rain = 0
KTA1 191531Z 33015KT 05/M03 A3033 RMK A01 T00511026  RH  057%=      5-min Rain = 0
KTA1 191532Z 33015KT 05/M03 A3033 RMK A01 T00511026  RH  057%=      5-min Rain = 0
KTA1 191533Z 33014KT 05/M03 A3033 RMK A01 T00511026  RH  057%=      5-min Rain = 0
KTA1 191534Z 33015KT 05/M03 A3033 RMK A01 T00521027  RH  057%=      5-min Rain = 0
KTA1 191535Z 33016KT 05/M03 A3033 RMK A01 T00521027  RH  057%=      5-min Rain = 0
KTA1 191536Z 34016KT 05/M03 A3033 RMK A01 T00521027  RH  057%=      5-min Rain = 0
KTA1 191537Z 33013KT 05/M03 A3033 RMK A01 T00521027  RH  057%=      5-min Rain = 0
KTA1 191538Z 33012KT 05/M03 A3033 RMK A01 T00531025  RH  057%=      5-min Rain = 0
KTA1 191539Z 33013KT 05/M03 A3033 RMK A01 T00541025  RH  056%=      5-min Rain = 0
KTA1 191540Z 33011G16KT 06/M03 A3034 RMK A01 T00551026  RH  056%=      5-min Rain = 0
KTA1 191541Z 33013G18KT 06/M03 A3033 RMK A01 T00561025  RH  056%=      5-min Rain = 0
KTA1 191542Z 33015KT 06/M03 A3033 RMK A01 T00561026  RH  055%=      5-min Rain = 0
KTA1 191543Z 33013KT 06/M03 A3034 RMK A01 T00561026  RH  055%=      5-min Rain = 0
KTA1 191544Z 33013KT 06/M03 A3034 RMK A01 T00561026  RH  056%=      5-min Rain = 0
KTA1 191545Z 33015KT 06/M03 A3034 RMK A01 T00571026  RH  055%=      5-min Rain = 0
KTA1 191546Z 33015KT 06/M03 A3034 RMK A01 T00571027  RH  055%=      5-min Rain = 0
KTA1 191547Z 33013KT 06/M03 A3034 RMK A01 T00571026  RH  055%=      5-min Rain = 0
KTA1 191548Z 33016KT 06/M03 A3034 RMK A01 T00581026  RH  055%=      5-min Rain = 0
KTA1 191549Z 33015KT 06/M03 A3034 RMK A01 T00591027  RH  054%=      5-min Rain = 0
KTA1 191550Z 33015KT 06/M03 A3034 RMK A01 T00581028  RH  054%=      5-min Rain = 0
KTA1 191551Z 34015G20KT 06/M03 A3034 RMK A01 T00581028  RH  054%=      5-min Rain = 0
KTA1 191552Z 33016KT 06/M03 A3034 RMK A01 T00601027  RH  054%=      5-min Rain = 0
KTA1 191553Z 34015KT 06/M03 A3034 RMK A01 T00601028  RH  053%=      5-min Rain = 0
KTA1 191554Z 34014KT 06/M03 A3034 RMK A01 T00601028  RH  053%=      5-min Rain = 0
KTA1 191555Z 33018KT 06/M03 A3034 RMK A01 T00611029  RH  053%=      5-min Rain = 0
KTA1 191556Z 34019KT 06/M03 A3034 RMK A01 T00611030  RH  052%=      5-min Rain = 0
KTA1 191557Z 35018KT 06/M03 A3034 RMK A01 T00611031  RH  052%=      5-min Rain = 0
KTA1 191558Z 34018KT 06/M03 A3034 RMK A01 T00611031  RH  052%=      5-min Rain = 0
KTA1 191559Z 34017KT 06/M03 A3034 RMK A01 T00621031  RH  052%=      5-min Rain = 0
KTA1 191600Z 34015KT 06/M03 A3034 RMK A01 T00621030  RH  052%=      5-min Rain = 0
KTA1 191601Z 34014KT 06/M03 A3034 RMK A01 T00631027  RH  052%=      5-min Rain = 0
KTA1 191602Z 34012KT 07/M03 A3034 RMK A01 T00651026  RH  052%=      5-min Rain = 0
KTA1 191603Z 33017KT 07/M03 A3034 RMK A01 T00661028  RH  051%=      5-min Rain = 0
KTA1 191604Z 34020KT 07/M03 A3034 RMK A01 T00651030  RH  050%=      5-min Rain = 0
KTA1 191605Z 34019KT 07/M03 A3034 RMK A01 T00651032  RH  050%=      5-min Rain = 0
KTA1 191606Z 34019KT 06/M03 A3034 RMK A01 T00641032  RH  050%=      5-min Rain = 0
KTA1 191607Z 34015KT 07/M03 A3034 RMK A01 T00651032  RH  050%=      5-min Rain = 0
KTA1 191608Z 33012G17KT 07/M03 A3034 RMK A01 T00661030  RH  050%=      5-min Rain = 0
KTA1 191609Z 33017KT 07/M03 A3034 RMK A01 T00671029  RH  050%=      5-min Rain = 0
KTA1 191610Z 34018KT 07/M03 A3034 RMK A01 T00671030  RH  050%=      5-min Rain = 0
KTA1 191611Z 34015KT 07/M03 A3034 RMK A01 T00671030  RH  050%=      5-min Rain = 0
KTA1 191612Z 34014KT 07/M03 A3034 RMK A01 T00681030  RH  050%=      5-min Rain = 0
KTA1 191613Z 34015KT 07/M03 A3034 RMK A01 T00681030  RH  050%=      5-min Rain = 0
KTA1 191614Z 34015KT 07/M03 A3035 RMK A01 T00691030  RH  049%=      5-min Rain = 0
KTA1 191615Z 34016KT 07/M03 A3035 RMK A01 T00701030  RH  049%=      5-min Rain = 0
KTA1 191616Z 34016KT 07/M03 A3034 RMK A01 T00691031  RH  049%=      5-min Rain = 0
KTA1 191617Z 33016G21KT 07/M03 A3034 RMK A01 T00701030  RH  049%=      5-min Rain = 0
KTA1 191618Z 33017KT 07/M03 A3034 RMK A01 T00701031  RH  049%=      5-min Rain = 0
KTA1 191619Z 34016KT 07/M03 A3034 RMK A01 T00701032  RH  048%=      5-min Rain = 0
KTA1 191620Z 36016KT 07/M03 A3034 RMK A01 T00711032  RH  048%=      5-min Rain = 0
KTA1 191621Z 34018KT 07/M03 A3034 RMK A01 T00711032  RH  048%=      5-min Rain = 0
KTA1 191622Z 34014KT 07/M03 A3034 RMK A01 T00721032  RH  048%=      5-min Rain = 0
KTA1 191623Z 35018KT 07/M03 A3035 RMK A01 T00731031  RH  048%=      5-min Rain = 0
KTA1 191624Z 34015KT 07/M03 A3035 RMK A01 T00731031  RH  048%=      5-min Rain = 0
KTA1 191625Z 34013G18KT 07/M03 A3035 RMK A01 T00741029  RH  048%=      5-min Rain = 0
KTA1 191626Z 34015G20KT 08/M03 A3035 RMK A01 T00751030  RH  047%=      5-min Rain = 0
KTA1 191627Z 33015KT 08/M03 A3034 RMK A01 T00761030  RH  047%=      5-min Rain = 0
KTA1 191628Z 34015KT 08/M03 A3034 RMK A01 T00771030  RH  047%=      5-min Rain = 0
KTA1 191629Z 35018KT 08/M03 A3034 RMK A01 T00771032  RH  046%=      5-min Rain = 0
KTA1 191630Z 35017KT 08/M04 A3035 RMK A01 T00771035  RH  045%=      5-min Rain = 0
KTA1 191631Z 36015KT 08/M04 A3035 RMK A01 T00771035  RH  045%=      5-min Rain = 0
KTA1 191632Z 35018KT 08/M04 A3035 RMK A01 T00791035  RH  044%=      5-min Rain = 0
KTA1 191633Z 35014G21KT 08/M04 A3035 RMK A01 T00791036  RH  044%=      5-min Rain = 0
KTA1 191634Z 35017KT 08/M04 A3035 RMK A01 T00801035  RH  044%=      5-min Rain = 0
KTA1 191635Z 34017KT 08/M04 A3035 RMK A01 T00801035  RH  044%=      5-min Rain = 0
KTA1 191636Z 35017KT 08/M04 A3035 RMK A01 T00801036  RH  044%=      5-min Rain = 0
KTA1 191637Z 36016KT 08/M04 A3035 RMK A01 T00801035  RH  044%=      5-min Rain = 0
KTA1 191638Z 00017KT 08/M04 A3035 RMK A01 T00801036  RH  044%=      5-min Rain = 0
KTA1 191639Z 35017KT 08/M04 A3035 RMK A01 T00801037  RH  043%=      5-min Rain = 0
KTA1 191640Z 36016KT 08/M04 A3035 RMK A01 T00791036  RH  044%=      5-min Rain = 0
KTA1 191641Z 35016KT 08/M03 A3035 RMK A01 T00801034  RH  044%=      5-min Rain = 0
KTA1 191642Z 35018KT 08/M04 A3035 RMK A01 T00801036  RH  044%=      5-min Rain = 0
KTA1 191643Z 36017KT 08/M04 A3035 RMK A01 T00791037  RH  044%=      5-min Rain = 0
KTA1 191644Z 35017KT 08/M04 A3035 RMK A01 T00791036  RH  044%=      5-min Rain = 0
KTA1 191645Z 34016KT 08/M03 A3036 RMK A01 T00821034  RH  044%=      5-min Rain = 0
KTA1 191646Z 35017KT 08/M04 A3035 RMK A01 T00821035  RH  043%=      5-min Rain = 0
KTA1 191647Z 34017KT 08/M04 A3035 RMK A01 T00811036  RH  043%=      5-min Rain = 0
KTA1 191648Z 34017KT 08/M04 A3036 RMK A01 T00801036  RH  044%=      5-min Rain = 0
KTA1 191649Z 35016KT 08/M04 A3036 RMK A01 T00801037  RH  043%=      5-min Rain = 0
KTA1 191650Z 34016KT 08/M04 A3035 RMK A01 T00821035  RH  044%=      5-min Rain = 0
KTA1 191651Z 34016KT 08/M03 A3035 RMK A01 T00831034  RH  043%=      5-min Rain = 0
KTA1 191652Z 35016KT 08/M04 A3035 RMK A01 T00831035  RH  043%=      5-min Rain = 0
KTA1 191653Z 34014KT 08/M04 A3035 RMK A01 T00831035  RH  043%=      5-min Rain = 0
KTA1 191654Z 35014KT 08/M03 A3035 RMK A01 T00841034  RH  043%=      5-min Rain = 0
KTA1 191655Z 35015KT 09/M03 A3035 RMK A01 T00851033  RH  043%=      5-min Rain = 0
KTA1 191656Z 35016KT 09/M04 A3036 RMK A01 T00861035  RH  042%=      5-min Rain = 0
KTA1 191657Z 36016KT 09/M04 A3036 RMK A01 T00851036  RH  042%=      5-min Rain = 0
KTA1 191658Z 36014KT 09/M04 A3036 RMK A01 T00861035  RH  042%=      5-min Rain = 0
KTA1 191659Z 01014KT 09/M04 A3036 RMK A01 T00871036  RH  042%=      5-min Rain = 0
KTA1 191700Z 01014KT 09/M04 A3036 RMK A01 T00881035  RH  042%=      5-min Rain = 0
KTA1 191701Z 00017KT 09/M04 A3036 RMK A01 T00881036  RH  042%=      5-min Rain = 0
KTA1 191702Z 35017KT 09/M04 A3036 RMK A01 T00871036  RH  042%=      5-min Rain = 0
KTA1 191703Z 35014KT 09/M04 A3036 RMK A01 T00861035  RH  042%=      5-min Rain = 0
KTA1 191704Z 36014KT 09/M03 A3036 RMK A01 T00891033  RH  042%=      5-min Rain = 0
KTA1 191705Z 35016G21KT 09/M04 A3036 RMK A01 T00891035  RH  041%=      5-min Rain = 0
KTA1 191706Z 36016KT 09/M04 A3036 RMK A01 T00891036  RH  041%=      5-min Rain = 0
KTA1 191707Z 34016KT 09/M04 A3036 RMK A01 T00891036  RH  041%=      5-min Rain = 0
KTA1 191708Z 35016KT 09/M03 A3036 RMK A01 T00891034  RH  042%=      5-min Rain = 0
KTA1 191709Z 36017KT 09/M04 A3036 RMK A01 T00891036  RH  041%=      5-min Rain = 0
KTA1 191710Z 01016KT 09/M04 A3036 RMK A01 T00891036  RH  041%=      5-min Rain = 0
KTA1 191711Z 01016KT 09/M04 A3036 RMK A01 T00891035  RH  041%=      5-min Rain = 0
KTA1 191712Z 01013KT 09/M04 A3036 RMK A01 T00881037  RH  041%=      5-min Rain = 0
KTA1 191713Z 35013KT 09/M03 A3036 RMK A01 T00891034  RH  042%=      5-min Rain = 0
KTA1 191714Z 34016KT 09/M03 A3036 RMK A01 T00911031  RH  042%=      5-min Rain = 0
KTA1 191715Z 36015KT 09/M03 A3036 RMK A01 T00921033  RH  041%=      5-min Rain = 0
KTA1 191716Z 00017KT 09/M03 A3036 RMK A01 T00931033  RH  041%=      5-min Rain = 0
KTA1 191717Z 36016KT 09/M04 A3036 RMK A01 T00921036  RH  040%=      5-min Rain = 0
KTA1 191718Z 00016KT 09/M03 A3036 RMK A01 T00921034  RH  041%=      5-min Rain = 0
KTA1 191719Z 35016KT 09/M03 A3036 RMK A01 T00921034  RH  041%=      5-min Rain = 0
KTA1 191720Z 35012KT 09/M03 A3036 RMK A01 T00931031  RH  042%=      5-min Rain = 0
KTA1 191721Z 35015KT 09/M03 A3036 RMK A01 T00941032  RH  041%=      5-min Rain = 0
KTA1 191722Z 35014KT 09/M03 A3036 RMK A01 T00931032  RH  041%=      5-min Rain = 0
KTA1 191723Z 01014KT 09/M03 A3036 RMK A01 T00931034  RH  041%=      5-min Rain = 0
KTA1 191724Z 35014KT 09/M03 A3036 RMK A01 T00941032  RH  041%=      5-min Rain = 0
KTA1 191725Z 36013KT 09/M03 A3036 RMK A01 T00941034  RH  040%=      5-min Rain = 0
KTA1 191726Z 00013KT 09/M03 A3036 RMK A01 T00931034  RH  041%=      5-min Rain = 0
KTA1 191727Z 35012KT 09/M03 A3036 RMK A01 T00931034  RH  041%=      5-min Rain = 0
KTA1 191728Z 34017KT 09/M03 A3036 RMK A01 T00931032  RH  041%=      5-min Rain = 0
KTA1 191729Z 35014KT 09/M03 A3036 RMK A01 T00931034  RH  041%=      5-min Rain = 0
KTA1 191730Z 35012KT 09/M03 A3036 RMK A01 T00931032  RH  041%=      5-min Rain = 0
KTA1 191731Z 36013G18KT 10/M03 A3036 RMK A01 T00951031  RH  041%=      5-min Rain = 0
KTA1 191732Z 01015KT 10/M03 A3036 RMK A01 T00961032  RH  040%=      5-min Rain = 0
KTA1 191733Z 01014KT 10/M03 A3036 RMK A01 T00961033  RH  040%=      5-min Rain = 0
KTA1 191734Z 36016KT 10/M03 A3036 RMK A01 T00971033  RH  040%=      5-min Rain = 0
KTA1 191735Z 36016KT 10/M04 A3036 RMK A01 T00961035  RH  039%=      5-min Rain = 0
KTA1 191736Z 00015KT 10/M03 A3036 RMK A01 T00951034  RH  040%=      5-min Rain = 0
KTA1 191737Z 00016KT 10/M03 A3036 RMK A01 T00951034  RH  040%=      5-min Rain = 0
KTA1 191738Z 00015KT 09/M04 A3036 RMK A01 T00941036  RH  040%=      5-min Rain = 0
KTA1 191739Z 35018KT 10/M04 A3036 RMK A01 T00951035  RH  040%=      5-min Rain = 0
KTA1 191740Z 35015KT 10/M04 A3036 RMK A01 T00951035  RH  040%=      5-min Rain = 0
KTA1 191741Z 35013KT 10/M03 A3036 RMK A01 T00951034  RH  040%=      5-min Rain = 0
KTA1 191742Z 34014KT 10/M03 A3036 RMK A01 T00961033  RH  040%=      5-min Rain = 0
KTA1 191743Z 35016KT 10/M03 A3036 RMK A01 T00971033  RH  040%=      5-min Rain = 0
KTA1 191744Z 35015KT 10/M03 A3036 RMK A01 T00961034  RH  040%=      5-min Rain = 0
KTA1 191745Z 36015KT 10/M04 A3036 RMK A01 T00951035  RH  040%=      5-min Rain = 0
KTA1 191746Z 00017KT 10/M03 A3036 RMK A01 T00971034  RH  040%=      5-min Rain = 0
KTA1 191747Z 35015KT 10/M03 A3036 RMK A01 T00981033  RH  039%=      5-min Rain = 0
KTA1 191748Z 35014KT 10/M03 A3036 RMK A01 T00991032  RH  040%=      5-min Rain = 0
KTA1 191749Z 35015KT 10/M03 A3036 RMK A01 T01001032  RH  039%=      5-min Rain = 0
KTA1 191750Z 35015KT 10/M03 A3035 RMK A01 T01011032  RH  039%=      5-min Rain = 0
KTA1 191751Z 35016KT 10/M04 A3035 RMK A01 T00991035  RH  039%=      5-min Rain = 0
KTA1 191752Z 36016KT 10/M03 A3035 RMK A01 T00991034  RH  039%=      5-min Rain = 0
KTA1 191753Z 36015KT 10/M04 A3036 RMK A01 T00991035  RH  039%=      5-min Rain = 0
KTA1 191754Z 36012KT 10/M04 A3035 RMK A01 T00981035  RH  039%=      5-min Rain = 0
KTA1 191755Z 34011G16KT 10/M03 A3035 RMK A01 T00981034  RH  039%=      5-min Rain = 0
KTA1 191756Z 34013KT 10/M03 A3035 RMK A01 T01001028  RH  040%=      5-min Rain = 0
KTA1 191757Z 34015KT 10/M03 A3035 RMK A01 T01031030  RH  039%=      5-min Rain = 0
KTA1 191758Z 34016KT 10/M03 A3035 RMK A01 T01031033  RH  038%=      5-min Rain = 0
KTA1 191759Z 35013KT 10/M03 A3035 RMK A01 T01011034  RH  039%=      5-min Rain = 0
KTA1 191800Z 33014KT 10/M03 A3035 RMK A01 T01001032  RH  039%=      5-min Rain = 0
KTA1 191801Z 33016KT 10/M03 A3035 RMK A01 T01031030  RH  039%=      5-min Rain = 0
KTA1 191802Z 33014KT 10/M03 A3035 RMK A01 T01041032  RH  038%=      5-min Rain = 0
KTA1 191803Z 33015KT 10/M03 A3035 RMK A01 T01041031  RH  038%=      5-min Rain = 0
KTA1 191804Z 34014KT 10/M03 A3035 RMK A01 T01041033  RH  038%=      5-min Rain = 0
KTA1 191805Z 34017KT 10/M03 A3035 RMK A01 T01041032  RH  039%=      5-min Rain = 0
KTA1 191806Z 34017KT 10/M03 A3035 RMK A01 T01041032  RH  038%=      5-min Rain = 0
KTA1 191807Z 34014KT 10/M03 A3035 RMK A01 T01031033  RH  038%=      5-min Rain = 0
KTA1 191808Z 35012KT 10/M03 A3035 RMK A01 T01031031  RH  039%=      5-min Rain = 0
KTA1 191809Z 34014KT 11/M03 A3035 RMK A01 T01051030  RH  039%=      5-min Rain = 0
KTA1 191810Z 33015KT 11/M03 A3035 RMK A01 T01071031  RH  038%=      5-min Rain = 0
KTA1 191811Z 33015KT 11/M03 A3035 RMK A01 T01051034  RH  037%=      5-min Rain = 0
KTA1 191812Z 34018KT 10/M03 A3035 RMK A01 T01041033  RH  038%=      5-min Rain = 0
KTA1 191813Z 34017KT 10/M03 A3035 RMK A01 T01041033  RH  038%=      5-min Rain = 0
KTA1 191814Z 33016KT 10/M03 A3035 RMK A01 T01041034  RH  038%=      5-min Rain = 0
KTA1 191815Z 34013KT 10/M03 A3035 RMK A01 T01031033  RH  038%=      5-min Rain = 0
KTA1 191816Z 35015KT 10/M03 A3035 RMK A01 T01041032  RH  038%=      5-min Rain = 0
KTA1 191817Z 36013KT 11/M03 A3035 RMK A01 T01051033  RH  038%=      5-min Rain = 0
KTA1 191818Z 01015KT 11/M03 A3035 RMK A01 T01061034  RH  037%=      5-min Rain = 0
KTA1 191819Z 01015KT 11/M03 A3035 RMK A01 T01071034  RH  037%=      5-min Rain = 0
KTA1 191820Z 36014KT 11/M04 A3035 RMK A01 T01051035  RH  037%=      5-min Rain = 0
KTA1 191821Z 35012KT 11/M03 A3035 RMK A01 T01051034  RH  038%=      5-min Rain = 0
KTA1 191822Z 33012KT 11/M03 A3035 RMK A01 T01071031  RH  038%=      5-min Rain = 0
KTA1 191823Z 34009G14KT 11/M03 A3034 RMK A01 T01071031  RH  038%=      5-min Rain = 0
KTA1 191824Z 35012KT 11/M03 A3034 RMK A01 T01101027  RH  038%=      5-min Rain = 0
KTA1 191825Z 33015KT 11/M03 A3034 RMK A01 T01131028  RH  037%=      5-min Rain = 0
KTA1 191826Z 33015KT 11/M03 A3034 RMK A01 T01121032  RH  036%=      5-min Rain = 0
KTA1 191827Z 34016KT 11/M03 A3034 RMK A01 T01091033  RH  037%=      5-min Rain = 0
KTA1 191828Z 34013G18KT 11/M03 A3034 RMK A01 T01071033  RH  037%=      5-min Rain = 0
KTA1 191829Z 34013KT 11/M03 A3034 RMK A01 T01071031  RH  038%=      5-min Rain = 0
KTA1 191830Z 34014KT 11/M03 A3034 RMK A01 T01091030  RH  038%=      5-min Rain = 0
KTA1 191831Z 34014KT 11/M03 A3034 RMK A01 T01101032  RH  037%=      5-min Rain = 0
KTA1 191832Z 33015KT 11/M03 A3034 RMK A01 T01101033  RH  037%=      5-min Rain = 0
KTA1 191833Z 34015KT 11/M03 A3034 RMK A01 T01091034  RH  037%=      5-min Rain = 0
KTA1 191834Z 34015KT 11/M03 A3034 RMK A01 T01081033  RH  037%=      5-min Rain = 0
KTA1 191835Z 33013KT 11/M03 A3034 RMK A01 T01091034  RH  037%=      5-min Rain = 0
KTA1 191836Z 33015G20KT 11/M03 A3034 RMK A01 T01091033  RH  037%=      5-min Rain = 0
KTA1 191837Z 35015KT 11/M03 A3034 RMK A01 T01091033  RH  037%=      5-min Rain = 0
KTA1 191838Z 35015KT 11/M03 A3034 RMK A01 T01111031  RH  037%=      5-min Rain = 0
KTA1 191839Z 35016KT 11/M03 A3034 RMK A01 T01131032  RH  036%=      5-min Rain = 0
KTA1 191840Z 35014KT 11/M03 A3034 RMK A01 T01131033  RH  036%=      5-min Rain = 0
KTA1 191841Z 33017KT 11/M03 A3034 RMK A01 T01111034  RH  036%=      5-min Rain = 0
KTA1 191842Z 34016KT 11/M03 A3034 RMK A01 T01101034  RH  036%=      5-min Rain = 0
KTA1 191843Z 34015KT 11/M03 A3034 RMK A01 T01101034  RH  036%=      5-min Rain = 0
KTA1 191844Z 33015KT 11/M03 A3034 RMK A01 T01101033  RH  036%=      5-min Rain = 0
KTA1 191845Z 34015G20KT 11/M03 A3034 RMK A01 T01121030  RH  037%=      5-min Rain = 0
KTA1 191846Z 33018KT 11/M03 A3034 RMK A01 T01141031  RH  036%=      5-min Rain = 0
KTA1 191847Z 33015KT 11/M03 A3034 RMK A01 T01121033  RH  036%=      5-min Rain = 0
KTA1 191848Z 34014KT 11/M03 A3034 RMK A01 T01121031  RH  036%=      5-min Rain = 0
KTA1 191849Z 33011KT 11/M03 A3033 RMK A01 T01121033  RH  036%=      5-min Rain = 0
KTA1 191850Z 33008KT 11/M03 A3033 RMK A01 T01101033  RH  037%=      5-min Rain = 0
KTA1 191851Z 34008KT 11/M03 A3033 RMK A01 T01121028  RH  037%=      5-min Rain = 0
KTA1 191852Z 34009KT 11/M03 A3033 RMK A01 T01141029  RH  037%=      5-min Rain = 0
KTA1 191853Z 34010KT 12/M03 A3033 RMK A01 T01151027  RH  037%=      5-min Rain = 0
KTA1 191854Z 34014KT 12/M02 A3033 RMK A01 T01201024  RH  037%=      5-min Rain = 0
KTA1 191855Z 33014KT 12/M03 A3033 RMK A01 T01211029  RH  035%=      5-min Rain = 0
KTA1 191856Z 34013KT 12/M03 A3033 RMK A01 T01181032  RH  035%=      5-min Rain = 0
KTA1 191857Z 34012KT 12/M03 A3033 RMK A01 T01161034  RH  035%=      5-min Rain = 0
KTA1 191858Z 34014KT 12/M03 A3033 RMK A01 T01151033  RH  035%=      5-min Rain = 0
KTA1 191859Z 33017G22KT 12/M03 A3033 RMK A01 T01151032  RH  036%=      5-min Rain = 0
KTA1 191900Z 34015KT 12/M03 A3033 RMK A01 T01161032  RH  035%=      5-min Rain = 0
KTA1 191901Z 33014KT 12/M03 A3033 RMK A01 T01161032  RH  035%=      5-min Rain = 0
KTA1 191902Z 33013G18KT 12/M03 A3033 RMK A01 T01171032  RH  035%=      5-min Rain = 0
KTA1 191903Z 32012KT 12/M03 A3033 RMK A01 T01171032  RH  035%=      5-min Rain = 0
KTA1 191904Z 32013KT 12/M03 A3033 RMK A01 T01161033  RH  035%=      5-min Rain = 0
KTA1 191905Z 33012G17KT 12/M03 A3033 RMK A01 T01151032  RH  035%=      5-min Rain = 0
KTA1 191906Z 33015KT 12/M03 A3032 RMK A01 T01161032  RH  036%=      5-min Rain = 0
KTA1 191907Z 33013KT 12/M03 A3032 RMK A01 T01161032  RH  035%=      5-min Rain = 0
KTA1 191908Z 33010KT 12/M03 A3032 RMK A01 T01151032  RH  035%=      5-min Rain = 0
KTA1 191909Z 33011KT 11/M03 A3032 RMK A01 T01141033  RH  035%=      5-min Rain = 0
KTA1 191910Z 32014KT 12/M03 A3032 RMK A01 T01151031  RH  036%=      5-min Rain = 0
KTA1 191911Z 33012KT 12/M03 A3032 RMK A01 T01181031  RH  035%=      5-min Rain = 0
KTA1 191912Z 35012KT 12/M03 A3032 RMK A01 T01191029  RH  035%=      5-min Rain = 0
KTA1 191913Z 33011KT 12/M03 A3032 RMK A01 T01191031  RH  035%=      5-min Rain = 0
KTA1 191914Z 34013KT 12/M03 A3032 RMK A01 T01201028  RH  036%=      5-min Rain = 0
KTA1 191915Z 33017KT 12/M03 A3032 RMK A01 T01211032  RH  034%=      5-min Rain = 0
KTA1 191916Z 34015KT 12/M04 A3032 RMK A01 T01191035  RH  034%=      5-min Rain = 0
KTA1 191917Z 33015KT 12/M03 A3032 RMK A01 T01181034  RH  034%=      5-min Rain = 0
KTA1 191918Z 33013KT 12/M03 A3032 RMK A01 T01181033  RH  035%=      5-min Rain = 0
KTA1 191919Z 33014G19KT 12/M03 A3032 RMK A01 T01181031  RH  035%=      5-min Rain = 0
KTA1 191920Z 34013KT 12/M03 A3032 RMK A01 T01201031  RH  035%=      5-min Rain = 0
KTA1 191921Z 34015KT 12/M03 A3032 RMK A01 T01191032  RH  035%=      5-min Rain = 0
KTA1 191922Z 34018KT 12/M03 A3031 RMK A01 T01181033  RH  035%=      5-min Rain = 0
KTA1 191923Z 35014KT 12/M03 A3032 RMK A01 T01181033  RH  035%=      5-min Rain = 0
KTA1 191924Z 35013KT 12/M03 A3032 RMK A01 T01191031  RH  035%=      5-min Rain = 0
KTA1 191925Z 35014KT 12/M03 A3031 RMK A01 T01201032  RH  034%=      5-min Rain = 0
KTA1 191926Z 34015KT 12/M03 A3031 RMK A01 T01201032  RH  035%=      5-min Rain = 0
KTA1 191927Z 35013G21KT 12/M03 A3031 RMK A01 T01181032  RH  035%=      5-min Rain = 0
KTA1 191928Z 35012KT 12/M04 A3031 RMK A01 T01181035  RH  034%=      5-min Rain = 0
KTA1 191929Z 33012G18KT 12/M03 A3031 RMK A01 T01181031  RH  035%=      5-min Rain = 0
KTA1 191930Z 33015KT 12/M03 A3031 RMK A01 T01201031  RH  035%=      5-min Rain = 0
KTA1 191931Z 32011KT 12/M03 A3031 RMK A01 T01201032  RH  034%=      5-min Rain = 0
KTA1 191932Z 33011G16KT 12/M03 A3031 RMK A01 T01211030  RH  035%=      5-min Rain = 0
KTA1 191933Z 33011KT 12/M03 A3031 RMK A01 T01211030  RH  035%=      5-min Rain = 0
KTA1 191934Z 34013KT 12/M03 A3031 RMK A01 T01211030  RH  035%=      5-min Rain = 0
KTA1 191935Z 34015KT 12/M03 A3031 RMK A01 T01211031  RH  034%=      5-min Rain = 0
KTA1 191936Z 34014KT 12/M03 A3031 RMK A01 T01201031  RH  035%=      5-min Rain = 0
KTA1 191937Z 36014KT 12/M03 A3031 RMK A01 T01191032  RH  035%=      5-min Rain = 0
KTA1 191938Z 35011KT 12/M03 A3031 RMK A01 T01191032  RH  035%=      5-min Rain = 0
KTA1 191939Z 34012KT 12/M03 A3031 RMK A01 T01191031  RH  035%=      5-min Rain = 0
KTA1 191940Z 31014KT 12/M03 A303 RMK A01 T01221027  RH  035%=      5-min Rain = 0
KTA1 191941Z 32013KT 12/M03 A303 RMK A01 T01231029  RH  034%=      5-min Rain = 0
KTA1 191942Z 33010KT 12/M03 A303 RMK A01 T01221031  RH  034%=      5-min Rain = 0
KTA1 191943Z 32010KT 12/M03 A303 RMK A01 T01211029  RH  035%=      5-min Rain = 0
KTA1 191944Z 33009KT 12/M03 A303 RMK A01 T01221030  RH  035%=      5-min Rain = 0
KTA1 191945Z 33007KT 12/M03 A303 RMK A01 T01211030  RH  035%=      5-min Rain = 0
KTA1 191946Z 33013KT 12/M03 A303 RMK A01 T01221029  RH  035%=      5-min Rain = 0
KTA1 191947Z 34015KT 12/M03 A303 RMK A01 T01221031  RH  034%=      5-min Rain = 0
KTA1 191948Z 34015KT 12/M03 A303 RMK A01 T01231030  RH  034%=      5-min Rain = 0
KTA1 191949Z 32013KT 13/M03 A303 RMK A01 T01261028  RH  034%=      5-min Rain = 0
KTA1 191950Z 31017KT 13/M03 A303 RMK A01 T01281030  RH  033%=      5-min Rain = 0
KTA1 191951Z 32016KT 13/M03 A303 RMK A01 T01271032  RH  033%=      5-min Rain = 0
KTA1 191952Z 32013KT 13/M03 A303 RMK A01 T01251033  RH  033%=      5-min Rain = 0
KTA1 191953Z 33013KT 12/M03 A303 RMK A01 T01241033  RH  033%=      5-min Rain = 0
KTA1 191954Z 33016KT 12/M03 A3029 RMK A01 T01241032  RH  034%=      5-min Rain = 0
KTA1 191955Z 34013KT 12/M03 A303 RMK A01 T01241032  RH  034%=      5-min Rain = 0
KTA1 191956Z 34010KT 12/M03 A303 RMK A01 T01221033  RH  034%=      5-min Rain = 0
KTA1 191957Z 33013KT 12/M03 A303 RMK A01 T01231029  RH  035%=      5-min Rain = 0
KTA1 191958Z 33011KT 13/M03 A3029 RMK A01 T01261027  RH  034%=      5-min Rain = 0
KTA1 191959Z 33011KT 13/M03 A3029 RMK A01 T01281029  RH  034%=      5-min Rain = 0
KTA1 192000Z 32009KT 13/M03 A3029 RMK A01 T01271031  RH  033%=      5-min Rain = 0
KTA1 192001Z 31011KT 13/M03 A3029 RMK A01 T01251030  RH  034%=      5-min Rain = 0
KTA1 192002Z 31010KT 13/M03 A3029 RMK A01 T01251030  RH  034%=      5-min Rain = 0
KTA1 192003Z 31011KT 13/M03 A3029 RMK A01 T01271028  RH  034%=      5-min Rain = 0
KTA1 192004Z 33009KT 13/M03 A3029 RMK A01 T01271031  RH  033%=      5-min Rain = 0
KTA1 192005Z 34010KT 13/M03 A3029 RMK A01 T01271030  RH  034%=      5-min Rain = 0
KTA1 192006Z 31014KT 13/M03 A3029 RMK A01 T01261031  RH  033%=      5-min Rain = 0
KTA1 192007Z 30014KT 13/M03 A3029 RMK A01 T01271032  RH  033%=      5-min Rain = 0
KTA1 192008Z 32012G17KT 13/M03 A3029 RMK A01 T01261034  RH  033%=      5-min Rain = 0
KTA1 192009Z 31012KT 13/M03 A3029 RMK A01 T01261031  RH  033%=      5-min Rain = 0
KTA1 192010Z 32013G18KT 13/M03 A3029 RMK A01 T01291032  RH  032%=      5-min Rain = 0
KTA1 192011Z 30012KT 13/M03 A3029 RMK A01 T01281034  RH  032%=      5-min Rain = 0
KTA1 192012Z 31017KT 13/M03 A3028 RMK A01 T01281031  RH  033%=      5-min Rain = 0
KTA1 192013Z 32015KT 13/M03 A3028 RMK A01 T01311031  RH  032%=      5-min Rain = 0
KTA1 192014Z 33015KT 13/M03 A3028 RMK A01 T01321032  RH  032%=      5-min Rain = 0
KTA1 192015Z 32015G20KT 13/M03 A3029 RMK A01 T01321032  RH  032%=      5-min Rain = 0
KTA1 192016Z 32013KT 13/M03 A3029 RMK A01 T01311033  RH  032%=      5-min Rain = 0
KTA1 192017Z 33015KT 13/M03 A3029 RMK A01 T01311033  RH  032%=      5-min Rain = 0
KTA1 192018Z 31011KT 13/M03 A3029 RMK A01 T01301032  RH  032%=      5-min Rain = 0
KTA1 192019Z 30012G17KT 13/M03 A3029 RMK A01 T01301032  RH  032%=      5-min Rain = 0
KTA1 192020Z 31013G18KT 13/M03 A3029 RMK A01 T01311030  RH  032%=      5-min Rain = 0
KTA1 192021Z 30013KT 13/M03 A3029 RMK A01 T01311031  RH  032%=      5-min Rain = 0
KTA1 192022Z 31011KT 13/M03 A3029 RMK A01 T01311030  RH  033%=      5-min Rain = 0
KTA1 192023Z 31011KT 13/M03 A3029 RMK A01 T01301031  RH  033%=      5-min Rain = 0
KTA1 192024Z 32010KT 13/M03 A3029 RMK A01 T01301030  RH  033%=      5-min Rain = 0
KTA1 192025Z 31010KT 13/M03 A3028 RMK A01 T01291031  RH  033%=      5-min Rain = 0
KTA1 192026Z 31011KT 13/M03 A3028 RMK A01 T01281032  RH  033%=      5-min Rain = 0
KTA1 192027Z 32010KT 13/M03 A3028 RMK A01 T01281030  RH  033%=      5-min Rain = 0
KTA1 192028Z 33012KT 13/M03 A3028 RMK A01 T01291031  RH  033%=      5-min Rain = 0
KTA1 192029Z 31011KT 13/M03 A3028 RMK A01 T01301027  RH  033%=      5-min Rain = 0
KTA1 192030Z 31012KT 13/M03 A3028 RMK A01 T01331030  RH  032%=      5-min Rain = 0
KTA1 192031Z 30012KT 13/M03 A3028 RMK A01 T01331031  RH  032%=      5-min Rain = 0
KTA1 192032Z 30015KT 13/M03 A3028 RMK A01 T01321033  RH  032%=      5-min Rain = 0
KTA1 192033Z 31012KT 13/M03 A3028 RMK A01 T01311033  RH  032%=      5-min Rain = 0
KTA1 192034Z 30014KT 13/M03 A3028 RMK A01 T01301033  RH  032%=      5-min Rain = 0
KTA1 192035Z 30011KT 13/M03 A3028 RMK A01 T01301033  RH  032%=      5-min Rain = 0
KTA1 192036Z 31015KT 13/M03 A3028 RMK A01 T01301032  RH  032%=      5-min Rain = 0
KTA1 192037Z 31014KT 13/M03 A3028 RMK A01 T01321031  RH  032%=      5-min Rain = 0
KTA1 192038Z 31016KT 13/M03 A3028 RMK A01 T01331033  RH  032%=      5-min Rain = 0
KTA1 192039Z 31016KT 13/M04 A3028 RMK A01 T01321036  RH  031%=      5-min Rain = 0
KTA1 192040Z 31014KT 13/M03 A3028 RMK A01 T01311034  RH  031%=      5-min Rain = 0
KTA1 192041Z 31013KT 13/M04 A3028 RMK A01 T01321035  RH  031%=      5-min Rain = 0
KTA1 192042Z 31012KT 13/M04 A3028 RMK A01 T01311035  RH  031%=      5-min Rain = 0
KTA1 192043Z 31010KT 13/M04 A3028 RMK A01 T01301035  RH  032%=      5-min Rain = 0
KTA1 192044Z 31015KT 13/M03 A3027 RMK A01 T01291034  RH  032%=      5-min Rain = 0
KTA1 192045Z 30014KT 13/M03 A3027 RMK A01 T01301033  RH  032%=      5-min Rain = 0
KTA1 192046Z 30013KT 13/M03 A3027 RMK A01 T01301033  RH  032%=      5-min Rain = 0
KTA1 192047Z 30013KT 13/M03 A3027 RMK A01 T01321032  RH  032%=      5-min Rain = 0
KTA1 192048Z 30016KT 13/M03 A3027 RMK A01 T01321033  RH  031%=      5-min Rain = 0
KTA1 192049Z 32016KT 13/M03 A3027 RMK A01 T01331033  RH  031%=      5-min Rain = 0
KTA1 192050Z 33015KT 13/M03 A3027 RMK A01 T01331032  RH  032%=      5-min Rain = 0
KTA1 192051Z 32013KT 13/M03 A3027 RMK A01 T01321034  RH  031%=      5-min Rain = 0
KTA1 192052Z 31016KT 13/M03 A3027 RMK A01 T01311034  RH  032%=      5-min Rain = 0
KTA1 192053Z 32014KT 13/M03 A3027 RMK A01 T01311033  RH  032%=      5-min Rain = 0
KTA1 192054Z 32012KT 13/M03 A3027 RMK A01 T01301032  RH  032%=      5-min Rain = 0
KTA1 192055Z 33009KT 13/M03 A3027 RMK A01 T01311032  RH  032%=      5-min Rain = 0
KTA1 192056Z 33010KT 13/M03 A3027 RMK A01 T01311029  RH  033%=      5-min Rain = 0
KTA1 192057Z 32010KT 13/M03 A3027 RMK A01 T01331028  RH  033%=      5-min Rain = 0
KTA1 192058Z 31011KT 13/M03 A3027 RMK A01 T01341028  RH  032%=      5-min Rain = 0
KTA1 192059Z 30015KT 14/M03 A3027 RMK A01 T01351030  RH  032%=      5-min Rain = 0
KTA1 192100Z 31012KT 14/M03 A3027 RMK A01 T01351032  RH  031%=      5-min Rain = 0
KTA1 192101Z 31011KT 14/M03 A3027 RMK A01 T01351031  RH  031%=      5-min Rain = 0
KTA1 192102Z 33011KT 13/M03 A3027 RMK A01 T01341030  RH  032%=      5-min Rain = 0
KTA1 192103Z 31010KT 14/M03 A3027 RMK A01 T01351029  RH  032%=      5-min Rain = 0
KTA1 192104Z 33014KT 14/M03 A3027 RMK A01 T01361029  RH  032%=      5-min Rain = 0
KTA1 192105Z 33013KT 14/M03 A3027 RMK A01 T01361031  RH  031%=      5-min Rain = 0
KTA1 192106Z 33011KT 14/M03 A3027 RMK A01 T01351031  RH  031%=      5-min Rain = 0
KTA1 192107Z 33012G18KT 13/M03 A3027 RMK A01 T01341032  RH  031%=      5-min Rain = 0
KTA1 192108Z 33015KT 14/M03 A3027 RMK A01 T01351029  RH  032%=      5-min Rain = 0
KTA1 192109Z 33017KT 14/M03 A3026 RMK A01 T01361032  RH  031%=      5-min Rain = 0
KTA1 192110Z 32016KT 13/M03 A3027 RMK A01 T01341034  RH  031%=      5-min Rain = 0
KTA1 192111Z 32013KT 13/M03 A3027 RMK A01 T01331033  RH  031%=      5-min Rain = 0
KTA1 192112Z 32011KT 13/M03 A3027 RMK A01 T01331031  RH  032%=      5-min Rain = 0
KTA1 192113Z 32011KT 13/M03 A3027 RMK A01 T01341030  RH  032%=      5-min Rain = 0
KTA1 192114Z 33013KT 14/M03 A3026 RMK A01 T01351032  RH  031%=      5-min Rain = 0
KTA1 192115Z 33015KT 14/M03 A3026 RMK A01 T01351032  RH  031%=      5-min Rain = 0
KTA1 192116Z 33014KT 14/M04 A3026 RMK A01 T01351035  RH  030%=      5-min Rain = 0
KTA1 192117Z 33017KT 13/M04 A3026 RMK A01 T01341035  RH  031%=      5-min Rain = 0
KTA1 192118Z 32013KT 13/M03 A3026 RMK A01 T01341034  RH  031%=      5-min Rain = 0
KTA1 192119Z 32012KT 13/M03 A3026 RMK A01 T01341032  RH  031%=      5-min Rain = 0
KTA1 192120Z 32012KT 14/M03 A3026 RMK A01 T01361032  RH  031%=      5-min Rain = 0
KTA1 192121Z 32010KT 14/M03 A3026 RMK A01 T01361034  RH  031%=      5-min Rain = 0
KTA1 192122Z 32014KT 14/M03 A3026 RMK A01 T01361032  RH  031%=      5-min Rain = 0
KTA1 192123Z 32011KT 14/M03 A3026 RMK A01 T01361030  RH  031%=      5-min Rain = 0
KTA1 192124Z 32012KT 14/M03 A3026 RMK A01 T01381030  RH  031%=      5-min Rain = 0
KTA1 192125Z 32012KT 14/M03 A3026 RMK A01 T01371031  RH  031%=      5-min Rain = 0
KTA1 192126Z 32012KT 14/M03 A3026 RMK A01 T01361032  RH  031%=      5-min Rain = 0
KTA1 192127Z 31012KT 14/M03 A3026 RMK A01 T01361032  RH  031%=      5-min Rain = 0
KTA1 192128Z 31012KT 14/M03 A3026 RMK A01 T01381034  RH  030%=      5-min Rain = 0
KTA1 192129Z 31014KT 14/M04 A3026 RMK A01 T01401035  RH  030%=      5-min Rain = 0
KTA1 192130Z 32017KT 14/M04 A3026 RMK A01 T01391035  RH  030%=      5-min Rain = 0
KTA1 192131Z 30014KT 14/M03 A3026 RMK A01 T01381034  RH  030%=      5-min Rain = 0
KTA1 192132Z 31012KT 14/M03 A3026 RMK A01 T01391032  RH  031%=      5-min Rain = 0
KTA1 192133Z 31014KT 14/M03 A3026 RMK A01 T01391034  RH  030%=      5-min Rain = 0
KTA1 192134Z 31011KT 14/M04 A3026 RMK A01 T01381035  RH  030%=      5-min Rain = 0
KTA1 192135Z 30014KT 14/M03 A3026 RMK A01 T01381034  RH  030%=      5-min Rain = 0
KTA1 192136Z 30011KT 14/M04 A3026 RMK A01 T01381035  RH  030%=      5-min Rain = 0
KTA1 192137Z 30010KT 14/M04 A3026 RMK A01 T01381035  RH  030%=      5-min Rain = 0
KTA1 192138Z 30013KT 14/M04 A3026 RMK A01 T01381035  RH  030%=      5-min Rain = 0
KTA1 192139Z 31013KT 14/M04 A3026 RMK A01 T01381035  RH  030%=      5-min Rain = 0
KTA1 192140Z 33009KT 14/M03 A3026 RMK A01 T01391032  RH  030%=      5-min Rain = 0
KTA1 192141Z 33009KT 14/M03 A3026 RMK A01 T01401031  RH  030%=      5-min Rain = 0
KTA1 192142Z 33011KT 14/M03 A3026 RMK A01 T01391032  RH  030%=      5-min Rain = 0
KTA1 192143Z 33010KT 14/M04 A3026 RMK A01 T01391035  RH  030%=      5-min Rain = 0
KTA1 192144Z 31013G18KT 14/M04 A3026 RMK A01 T01381035  RH  030%=      5-min Rain = 0
KTA1 192145Z 30013KT 14/M04 A3026 RMK A01 T01391036  RH  030%=      5-min Rain = 0
KTA1 192146Z 30013KT 14/M04 A3025 RMK A01 T01401038  RH  029%=      5-min Rain = 0
KTA1 192147Z 33010KT 14/M04 A3026 RMK A01 T01381039  RH  029%=      5-min Rain = 0
KTA1 192148Z 34011KT 14/M03 A3026 RMK A01 T01381034  RH  030%=      5-min Rain = 0
KTA1 192149Z 34011KT 14/M04 A3026 RMK A01 T01381035  RH  030%=      5-min Rain = 0
KTA1 192150Z 33011KT 14/M04 A3026 RMK A01 T01391035  RH  030%=      5-min Rain = 0
KTA1 192151Z 32013KT 14/M04 A3026 RMK A01 T01401039  RH  029%=      5-min Rain = 0
KTA1 192152Z 32014KT 14/M04 A3026 RMK A01 T01391040  RH  029%=      5-min Rain = 0
KTA1 192153Z 31012KT 14/M04 A3026 RMK A01 T01401038  RH  029%=      5-min Rain = 0
KTA1 192154Z 30011KT 14/M04 A3026 RMK A01 T01391038  RH  029%=      5-min Rain = 0
KTA1 192155Z 31010KT 14/M04 A3026 RMK A01 T01371036  RH  030%=      5-min Rain = 0
KTA1 192156Z 30011KT 14/M03 A3026 RMK A01 T01391034  RH  030%=      5-min Rain = 0
KTA1 192157Z 31010KT 14/M04 A3026 RMK A01 T01391037  RH  029%=      5-min Rain = 0
KTA1 192158Z 32010KT 14/M04 A3026 RMK A01 T01391037  RH  029%=      5-min Rain = 0
KTA1 192159Z 31010KT 14/M04 A3026 RMK A01 T01391039  RH  029%=      5-min Rain = 0
KTA1 192200Z 31011KT 14/M04 A3026 RMK A01 T01391040  RH  029%=      5-min Rain = 0
KTA1 192201Z 31009KT 14/M04 A3026 RMK A01 T01391038  RH  029%=      5-min Rain = 0
KTA1 192202Z 30009KT 14/M04 A3026 RMK A01 T01391037  RH  029%=      5-min Rain = 0
KTA1 192203Z 32008KT 14/M04 A3026 RMK A01 T01391037  RH  029%=      5-min Rain = 0
KTA1 192204Z 31007KT 14/M04 A3026 RMK A01 T01391036  RH  029%=      5-min Rain = 0
KTA1 192205Z 32010KT 14/M04 A3026 RMK A01 T01391036  RH  030%=      5-min Rain = 0
KTA1 192206Z 31014KT 14/M04 A3026 RMK A01 T01391040  RH  029%=      5-min Rain = 0
KTA1 192207Z 31013KT 14/M04 A3026 RMK A01 T01401044  RH  028%=      5-min Rain = 0
KTA1 192208Z 31012KT 14/M05 A3026 RMK A01 T01391045  RH  028%=      5-min Rain = 0
KTA1 192209Z 30012KT 14/M04 A3026 RMK A01 T01381043  RH  028%=      5-min Rain = 0
KTA1 192210Z 30013KT 14/M04 A3026 RMK A01 T01381042  RH  028%=      5-min Rain = 0
KTA1 192211Z 31010KT 14/M04 A3026 RMK A01 T01381041  RH  029%=      5-min Rain = 0
KTA1 192212Z 32012KT 14/M04 A3026 RMK A01 T01381040  RH  029%=      5-min Rain = 0
KTA1 192213Z 33012KT 14/M04 A3026 RMK A01 T01391043  RH  028%=      5-min Rain = 0
KTA1 192214Z 32012KT 14/M04 A3026 RMK A01 T01391044  RH  028%=      5-min Rain = 0
KTA1 192215Z 32012KT 14/M04 A3026 RMK A01 T01391043  RH  028%=      5-min Rain = 0
KTA1 192216Z 32012KT 14/M04 A3026 RMK A01 T01391044  RH  028%=      5-min Rain = 0
KTA1 192217Z 31009KT 14/M04 A3026 RMK A01 T01391043  RH  028%=      5-min Rain = 0
KTA1 192218Z 30010KT 14/M04 A3026 RMK A01 T01401038  RH  029%=      5-min Rain = 0
KTA1 192219Z 31011KT 14/M04 A3026 RMK A01 T01411037  RH  029%=      5-min Rain = 0
KTA1 192220Z 33010KT 14/M04 A3026 RMK A01 T01411038  RH  029%=      5-min Rain = 0
KTA1 192221Z 33012KT 14/M04 A3026 RMK A01 T01411042  RH  028%=      5-min Rain = 0
KTA1 192222Z 33010KT 14/M04 A3026 RMK A01 T01401044  RH  028%=      5-min Rain = 0
KTA1 192223Z 33007KT 14/M04 A3026 RMK A01 T01391043  RH  028%=      5-min Rain = 0
KTA1 192224Z 33011KT 14/M04 A3026 RMK A01 T01401041  RH  028%=      5-min Rain = 0
KTA1 192225Z 32014KT 14/M04 A3026 RMK A01 T01411042  RH  028%=      5-min Rain = 0
KTA1 192226Z 32011KT 14/M05 A3026 RMK A01 T01391046  RH  027%=      5-min Rain = 0
KTA1 192227Z 32010KT 14/M05 A3026 RMK A01 T01381046  RH  027%=      5-min Rain = 0
KTA1 192228Z 33009KT 14/M05 A3026 RMK A01 T01381045  RH  028%=      5-min Rain = 0
KTA1 192229Z 34008G14KT 14/M04 A3026 RMK A01 T01391043  RH  028%=      5-min Rain = 0
KTA1 192230Z 34012KT 14/M04 A3026 RMK A01 T01391042  RH  028%=      5-min Rain = 0
KTA1 192231Z 34010KT 14/M04 A3026 RMK A01 T01391042  RH  028%=      5-min Rain = 0
KTA1 192232Z 34009KT 14/M04 A3026 RMK A01 T01371043  RH  028%=      5-min Rain = 0
KTA1 192233Z 34008KT 14/M04 A3026 RMK A01 T01371041  RH  029%=      5-min Rain = 0
KTA1 192234Z 35007KT 14/M04 A3026 RMK A01 T01371039  RH  029%=      5-min Rain = 0
KTA1 192235Z 35007KT 14/M04 A3026 RMK A01 T01371039  RH  029%=      5-min Rain = 0
KTA1 192236Z 34007KT 14/M04 A3026 RMK A01 T01381040  RH  029%=      5-min Rain = 0
KTA1 192237Z 35009KT 14/M04 A3026 RMK A01 T01381039  RH  029%=      5-min Rain = 0
KTA1 192238Z 34010KT 14/M04 A3026 RMK A01 T01391041  RH  029%=      5-min Rain = 0
KTA1 192239Z 34008KT 14/M04 A3026 RMK A01 T01391042  RH  028%=      5-min Rain = 0
KTA1 192240Z 35007KT 14/M04 A3026 RMK A01 T01381041  RH  029%=      5-min Rain = 0
KTA1 192241Z 35009KT 14/M04 A3026 RMK A01 T01381039  RH  029%=      5-min Rain = 0
KTA1 192242Z 34010KT 14/M04 A3026 RMK A01 T01381043  RH  028%=      5-min Rain = 0
KTA1 192243Z 34010KT 14/M05 A3026 RMK A01 T01381047  RH  027%=      5-min Rain = 0
KTA1 192244Z 34012KT 14/M05 A3026 RMK A01 T01381046  RH  028%=      5-min Rain = 0
KTA1 192245Z 33011KT 14/M05 A3026 RMK A01 T01381046  RH  028%=      5-min Rain = 0
KTA1 192246Z 30010KT 14/M05 A3026 RMK A01 T01391045  RH  028%=      5-min Rain = 0
KTA1 192247Z 31009KT 14/M05 A3026 RMK A01 T01391046  RH  027%=      5-min Rain = 0
KTA1 192248Z 32010KT 14/M05 A3026 RMK A01 T01401047  RH  027%=      5-min Rain = 0
KTA1 192249Z 32011KT 14/M05 A3026 RMK A01 T01401050  RH  027%=      5-min Rain = 0
KTA1 192250Z 33009KT 14/M05 A3026 RMK A01 T01391052  RH  026%=      5-min Rain = 0
KTA1 192251Z 34009KT 14/M05 A3026 RMK A01 T01381050  RH  027%=      5-min Rain = 0
KTA1 192252Z 35009KT 14/M05 A3026 RMK A01 T01381049  RH  027%=      5-min Rain = 0
KTA1 192253Z 34011KT 14/M05 A3026 RMK A01 T01381049  RH  027%=      5-min Rain = 0
KTA1 192254Z 34010KT 14/M05 A3026 RMK A01 T01371048  RH  027%=      5-min Rain = 0
KTA1 192255Z 33010KT 14/M05 A3026 RMK A01 T01371048  RH  027%=      5-min Rain = 0
KTA1 192256Z 32009KT 14/M05 A3026 RMK A01 T01371048  RH  027%=      5-min Rain = 0
KTA1 192257Z 32009KT 14/M05 A3026 RMK A01 T01381047  RH  027%=      5-min Rain = 0
KTA1 192258Z 32009KT 14/M05 A3026 RMK A01 T01381047  RH  027%=      5-min Rain = 0
KTA1 192259Z 32009KT 14/M05 A3026 RMK A01 T01371047  RH  028%=      5-min Rain = 0
KTA1 192300Z 32011KT 14/M05 A3026 RMK A01 T01371045  RH  028%=      5-min Rain = 0
KTA1 192301Z 34009KT 14/M04 A3026 RMK A01 T01371043  RH  028%=      5-min Rain = 0
KTA1 192302Z 34008KT 14/M04 A3026 RMK A01 T01361042  RH  029%=      5-min Rain = 0
KTA1 192303Z 35007KT 14/M04 A3026 RMK A01 T01361040  RH  029%=      5-min Rain = 0
KTA1 192304Z 00007KT 14/M04 A3026 RMK A01 T01371038  RH  029%=      5-min Rain = 0
KTA1 192305Z 36010KT 14/M04 A3026 RMK A01 T01371040  RH  029%=      5-min Rain = 0
KTA1 192306Z 33011KT 14/M04 A3026 RMK A01 T01371041  RH  029%=      5-min Rain = 0
KTA1 192307Z 33009KT 14/M04 A3026 RMK A01 T01371043  RH  028%=      5-min Rain = 0
KTA1 192308Z 33009KT 14/M04 A3026 RMK A01 T01371044  RH  028%=      5-min Rain = 0
KTA1 192309Z 34008KT 14/M04 A3026 RMK A01 T01361043  RH  028%=      5-min Rain = 0
KTA1 192310Z 33008KT 14/M04 A3026 RMK A01 T01361043  RH  029%=      5-min Rain = 0
KTA1 192311Z 34008KT 14/M04 A3026 RMK A01 T01361042  RH  029%=      5-min Rain = 0
KTA1 192312Z 35008KT 14/M04 A3026 RMK A01 T01361040  RH  029%=      5-min Rain = 0
KTA1 192313Z 35010KT 14/M04 A3026 RMK A01 T01361040  RH  029%=      5-min Rain = 0
KTA1 192314Z 35009KT 14/M04 A3026 RMK A01 T01351042  RH  029%=      5-min Rain = 0
KTA1 192315Z 34007KT 14/M04 A3026 RMK A01 T01351041  RH  029%=      5-min Rain = 0
KTA1 192316Z 35006KT 14/M04 A3026 RMK A01 T01351040  RH  029%=      5-min Rain = 0
KTA1 192317Z 36007KT 14/M04 A3026 RMK A01 T01351040  RH  029%=      5-min Rain = 0
KTA1 192318Z 35009KT 14/M04 A3026 RMK A01 T01351040  RH  029%=      5-min Rain = 0
KTA1 192319Z 34008KT 14/M04 A3026 RMK A01 T01351042  RH  029%=      5-min Rain = 0
KTA1 192320Z 34007KT 13/M04 A3026 RMK A01 T01341041  RH  029%=      5-min Rain = 0
KTA1 192321Z 34006KT 14/M04 A3026 RMK A01 T01351041  RH  029%=      5-min Rain = 0
KTA1 192322Z 35007KT 13/M04 A3026 RMK A01 T01341043  RH  029%=      5-min Rain = 0
KTA1 192323Z 34007KT 13/M04 A3026 RMK A01 T01341044  RH  029%=      5-min Rain = 0
KTA1 192324Z 34006KT 13/M04 A3026 RMK A01 T01341043  RH  029%=      5-min Rain = 0
KTA1 192325Z 34006KT 13/M04 A3026 RMK A01 T01331042  RH  029%=      5-min Rain = 0
KTA1 192326Z 35007KT 13/M04 A3026 RMK A01 T01341041  RH  029%=      5-min Rain = 0
KTA1 192327Z 33006KT 13/M04 A3026 RMK A01 T01331041  RH  029%=      5-min Rain = 0
KTA1 192328Z 32007KT 13/M04 A3026 RMK A01 T01331042  RH  029%=      5-min Rain = 0
KTA1 192329Z 34007KT 13/M04 A3026 RMK A01 T01331043  RH  029%=      5-min Rain = 0
KTA1 192330Z 35008KT 13/M04 A3026 RMK A01 T01331042  RH  029%=      5-min Rain = 0
KTA1 192331Z 35007KT 13/M04 A3026 RMK A01 T01331041  RH  030%=      5-min Rain = 0
KTA1 192332Z 36007KT 13/M04 A3026 RMK A01 T01321041  RH  030%=      5-min Rain = 0
KTA1 192333Z 36007KT 13/M04 A3026 RMK A01 T01321042  RH  030%=      5-min Rain = 0
KTA1 192334Z 36007KT 13/M04 A3026 RMK A01 T01321042  RH  029%=      5-min Rain = 0
KTA1 192335Z 36006KT 13/M04 A3026 RMK A01 T01311043  RH  030%=      5-min Rain = 0
KTA1 192336Z 34005KT 13/M04 A3026 RMK A01 T01311042  RH  030%=      5-min Rain = 0
KTA1 192337Z 34005KT 13/M04 A3026 RMK A01 T01311039  RH  030%=      5-min Rain = 0
KTA1 192338Z 34005KT 13/M04 A3026 RMK A01 T01301037  RH  031%=      5-min Rain = 0
KTA1 192339Z 34006KT 13/M04 A3026 RMK A01 T01291037  RH  031%=      5-min Rain = 0
KTA1 192340Z 35006KT 13/M04 A3026 RMK A01 T01291038  RH  031%=      5-min Rain = 0
KTA1 192341Z 34008KT 13/M04 A3026 RMK A01 T01281038  RH  031%=      5-min Rain = 0
KTA1 192342Z 34007KT 13/M04 A3026 RMK A01 T01271041  RH  031%=      5-min Rain = 0
KTA1 192343Z 35007KT 13/M04 A3026 RMK A01 T01271041  RH  031%=      5-min Rain = 0
KTA1 192344Z 35006KT 13/M04 A3026 RMK A01 T01271040  RH  031%=      5-min Rain = 0
KTA1 192345Z 35006KT 13/M04 A3026 RMK A01 T01261040  RH  031%=      5-min Rain = 0
KTA1 192346Z 35006KT 13/M04 A3026 RMK A01 T01251040  RH  031%=      5-min Rain = 0
KTA1 192347Z 35006KT 13/M04 A3026 RMK A01 T01251040  RH  032%=      5-min Rain = 0
KTA1 192348Z 35005KT 12/M04 A3026 RMK A01 T01241039  RH  032%=      5-min Rain = 0
KTA1 192349Z 35005KT 12/M04 A3026 RMK A01 T01241038  RH  032%=      5-min Rain = 0
KTA1 192350Z 35005KT 12/M04 A3026 RMK A01 T01231038  RH  032%=      5-min Rain = 0
KTA1 192351Z 36005KT 12/M04 A3026 RMK A01 T01221037  RH  033%=      5-min Rain = 0
KTA1 192352Z 00005KT 12/M04 A3026 RMK A01 T01211038  RH  033%=      5-min Rain = 0
KTA1 192353Z 00005KT 12/M04 A3026 RMK A01 T01211038  RH  033%=      5-min Rain = 0
KTA1 192354Z 36005KT 12/M04 A3026 RMK A01 T01201038  RH  033%=      5-min Rain = 0
KTA1 192355Z 36005KT 12/M04 A3026 RMK A01 T01201038  RH  033%=      5-min Rain = 0
KTA1 192356Z 36004KT 12/M04 A3026 RMK A01 T01191039  RH  033%=      5-min Rain = 0
KTA1 192357Z 00004KT 12/M04 A3026 RMK A01 T01181039  RH  033%=      5-min Rain = 0
KTA1 192358Z 00004KT 12/M04 A3026 RMK A01 T01171039  RH  033%=      5-min Rain = 0
KTA1 192359Z 01004KT 12/M04 A3026 RMK A01 T01161039  RH  034%=      5-min Rain = 0
KTA1 200000Z 02004KT 12/M04 A3026 RMK A01 T01151039  RH  034%=      5-min Rain = 0
KTA1 200001Z 02004KT 11/M04 A3026 RMK A01 T01141039  RH  034%=      5-min Rain = 0
KTA1 200002Z 02004KT 11/M04 A3026 RMK A01 T01131040  RH  034%=      5-min Rain = 0
KTA1 200003Z 01004KT 11/M04 A3026 RMK A01 T01121040  RH  034%=      5-min Rain = 0
KTA1 200004Z 02004KT 11/M04 A3026 RMK A01 T01111041  RH  034%=      5-min Rain = 0
KTA1 200005Z 02004KT 11/M04 A3026 RMK A01 T01101042  RH  034%=      5-min Rain = 0
KTA1 200006Z 02004KT 11/M04 A3026 RMK A01 T01101042  RH  034%=      5-min Rain = 0
KTA1 200007Z 03003KT 11/M04 A3026 RMK A01 T01091043  RH  034%=      5-min Rain = 0
KTA1 200008Z 03004KT 11/M04 A3026 RMK A01 T01081043  RH  034%=      5-min Rain = 0
KTA1 200009Z 03004KT 11/M04 A3026 RMK A01 T01081043  RH  034%=      5-min Rain = 0
KTA1 200010Z 03004KT 11/M04 A3025 RMK A01 T01081043  RH  034%=      5-min Rain = 0
KTA1 200011Z 02004KT 11/M04 A3025 RMK A01 T01071043  RH  035%=      5-min Rain = 0
KTA1 200012Z 01004KT 11/M04 A3026 RMK A01 T01061043  RH  035%=      5-min Rain = 0
KTA1 200013Z 01004KT 11/M04 A3026 RMK A01 T01061042  RH  035%=      5-min Rain = 0
KTA1 200014Z 01004KT 11/M04 A3026 RMK A01 T01051042  RH  035%=      5-min Rain = 0
KTA1 200015Z 01004KT 10/M04 A3026 RMK A01 T01041043  RH  035%=      5-min Rain = 0
KTA1 200016Z 02004KT 10/M04 A3026 RMK A01 T01031043  RH  036%=      5-min Rain = 0
KTA1 200017Z 02004KT 10/M04 A3026 RMK A01 T01031042  RH  036%=      5-min Rain = 0
KTA1 200018Z 02004KT 10/M04 A3026 RMK A01 T01021042  RH  036%=      5-min Rain = 0
KTA1 200019Z 02004KT 10/M04 A3026 RMK A01 T01021042  RH  036%=      5-min Rain = 0
KTA1 200020Z 02005KT 10/M04 A3026 RMK A01 T01011042  RH  036%=      5-min Rain = 0
KTA1 200021Z 02005KT 10/M04 A3026 RMK A01 T01011042  RH  036%=      5-min Rain = 0
KTA1 200022Z 02005KT 10/M04 A3026 RMK A01 T01001042  RH  036%=      5-min Rain = 0
KTA1 200023Z 02004KT 10/M04 A3026 RMK A01 T01001042  RH  037%=      5-min Rain = 0
KTA1 200024Z 02004KT 10/M04 A3026 RMK A01 T01001041  RH  037%=      5-min Rain = 0
KTA1 200025Z 02004KT 10/M04 A3026 RMK A01 T00991041  RH  037%=      5-min Rain = 0
KTA1 200026Z 02004KT 10/M04 A3026 RMK A01 T00981042  RH  037%=      5-min Rain = 0
KTA1 200027Z 03004KT 10/M04 A3026 RMK A01 T00981042  RH  037%=      5-min Rain = 0
KTA1 200028Z 03004KT 10/M04 A3026 RMK A01 T00971042  RH  037%=      5-min Rain = 0
KTA1 200029Z 03004KT 10/M04 A3026 RMK A01 T00971042  RH  037%=      5-min Rain = 0
KTA1 200030Z 03003KT 10/M04 A3026 RMK A01 T00971042  RH  037%=      5-min Rain = 0
KTA1 200031Z 03003KT 10/M04 A3026 RMK A01 T00971041  RH  038%=      5-min Rain = 0
KTA1 200032Z 03002KT 10/M04 A3026 RMK A01 T00961041  RH  038%=      5-min Rain = 0
KTA1 200033Z 02003KT 10/M04 A3026 RMK A01 T00961041  RH  038%=      5-min Rain = 0
KTA1 200034Z 03003KT 10/M04 A3026 RMK A01 T00961041  RH  038%=      5-min Rain = 0
KTA1 200035Z 02003KT 10/M04 A3026 RMK A01 T00961041  RH  038%=      5-min Rain = 0
KTA1 200036Z 02002KT 10/M04 A3026 RMK A01 T00961040  RH  038%=      5-min Rain = 0
KTA1 200037Z 02003KT 10/M04 A3026 RMK A01 T00971040  RH  038%=      5-min Rain = 0
KTA1 200038Z 02002KT 10/M04 A3026 RMK A01 T00971040  RH  038%=      5-min Rain = 0
KTA1 200039Z 02003KT 10/M04 A3027 RMK A01 T00971041  RH  038%=      5-min Rain = 0
KTA1 200040Z 02003KT 10/M04 A3027 RMK A01 T00971040  RH  038%=      5-min Rain = 0
KTA1 200041Z 02003KT 10/M04 A3027 RMK A01 T00961039  RH  038%=      5-min Rain = 0
KTA1 200042Z 01003KT 10/M04 A3027 RMK A01 T00951040  RH  038%=      5-min Rain = 0
KTA1 200043Z 01003KT 09/M04 A3027 RMK A01 T00941041  RH  038%=      5-min Rain = 0
KTA1 200044Z 02003KT 09/M04 A3027 RMK A01 T00931041  RH  039%=      5-min Rain = 0
KTA1 200045Z 02003KT 09/M04 A3027 RMK A01 T00921041  RH  039%=      5-min Rain = 0
KTA1 200046Z 02004KT 09/M04 A3027 RMK A01 T00911040  RH  039%=      5-min Rain = 0
KTA1 200047Z 02004KT 09/M04 A3027 RMK A01 T00901041  RH  039%=      5-min Rain = 0
KTA1 200048Z 02004KT 09/M04 A3027 RMK A01 T00901042  RH  039%=      5-min Rain = 0
KTA1 200049Z 03003KT 09/M04 A3027 RMK A01 T00891042  RH  039%=      5-min Rain = 0
KTA1 200050Z 03003KT 09/M04 A3027 RMK A01 T00881043  RH  039%=      5-min Rain = 0
KTA1 200051Z 04003KT 09/M04 A3027 RMK A01 T00871043  RH  040%=      5-min Rain = 0
KTA1 200052Z 04003KT 09/M04 A3027 RMK A01 T00861043  RH  040%=      5-min Rain = 0
KTA1 200053Z 03005KT 09/M04 A3027 RMK A01 T00851043  RH  040%=      5-min Rain = 0
KTA1 200054Z 03004KT 08/M04 A3027 RMK A01 T00831042  RH  041%=      5-min Rain = 0
KTA1 200055Z 04004KT 08/M04 A3027 RMK A01 T00821042  RH  041%=      5-min Rain = 0
KTA1 200056Z 04004KT 08/M04 A3027 RMK A01 T00821042  RH  041%=      5-min Rain = 0
KTA1 200057Z 04004KT 08/M04 A3027 RMK A01 T00811041  RH  042%=      5-min Rain = 0
KTA1 200058Z 04004KT 08/M04 A3027 RMK A01 T00811042  RH  042%=      5-min Rain = 0
KTA1 200059Z 04004KT 08/M04 A3027 RMK A01 T00811042  RH  042%=      5-min Rain = 0
KTA1 200100Z 05004KT 08/M04 A3027 RMK A01 T00811042  RH  042%=      5-min Rain = 0
KTA1 200101Z 04004KT 08/M04 A3027 RMK A01 T00811042  RH  042%=      5-min Rain = 0
KTA1 200102Z 05004KT 08/M04 A3027 RMK A01 T00811042  RH  042%=      5-min Rain = 0
KTA1 200103Z 05004KT 08/M04 A3027 RMK A01 T00801042  RH  042%=      5-min Rain = 0
KTA1 200104Z 05004KT 08/M04 A3027 RMK A01 T00801042  RH  042%=      5-min Rain = 0
KTA1 200105Z 05003KT 08/M04 A3027 RMK A01 T00791042  RH  042%=      5-min Rain = 0
KTA1 200106Z 05003KT 08/M04 A3027 RMK A01 T00791042  RH  042%=      5-min Rain = 0
KTA1 200107Z 05002KT 08/M04 A3027 RMK A01 T00791042  RH  042%=      5-min Rain = 0
KTA1 200108Z 05002KT 08/M04 A3027 RMK A01 T00791041  RH  042%=      5-min Rain = 0
KTA1 200109Z 05002KT 08/M04 A3027 RMK A01 T00791040  RH  043%=      5-min Rain = 0
KTA1 200110Z 05003KT 08/M04 A3027 RMK A01 T00781041  RH  043%=      5-min Rain = 0
KTA1 200111Z 05003KT 08/M04 A3027 RMK A01 T00781041  RH  043%=      5-min Rain = 0
KTA1 200112Z 04003KT 08/M04 A3027 RMK A01 T00791040  RH  043%=      5-min Rain = 0
KTA1 200113Z 04003KT 08/M04 A3027 RMK A01 T00781040  RH  043%=      5-min Rain = 0
KTA1 200114Z 04004KT 08/M04 A3027 RMK A01 T00791040  RH  043%=      5-min Rain = 0
KTA1 200115Z 04004KT 08/M04 A3027 RMK A01 T00791040  RH  043%=      5-min Rain = 0
KTA1 200116Z 04004KT 08/M04 A3027 RMK A01 T00791040  RH  043%=      5-min Rain = 0
KTA1 200117Z 04004KT 08/M04 A3027 RMK A01 T00781040  RH  043%=      5-min Rain = 0
KTA1 200118Z 04004KT 08/M04 A3027 RMK A01 T00781040  RH  043%=      5-min Rain = 0
KTA1 200119Z 04004KT 08/M04 A3027 RMK A01 T00771040  RH  043%=      5-min Rain = 0
KTA1 200120Z 03004KT 08/M04 A3027 RMK A01 T00771040  RH  043%=      5-min Rain = 0
KTA1 200121Z 04005KT 08/M04 A3027 RMK A01 T00751040  RH  044%=      5-min Rain = 0
KTA1 200122Z 04005KT 07/M04 A3027 RMK A01 T00741040  RH  044%=      5-min Rain = 0
KTA1 200123Z 04005KT 07/M04 A3027 RMK A01 T00731041  RH  044%=      5-min Rain = 0
KTA1 200124Z 04006KT 07/M04 A3027 RMK A01 T00721041  RH  044%=      5-min Rain = 0
KTA1 200125Z 04006KT 07/M04 A3027 RMK A01 T00711041  RH  045%=      5-min Rain = 0
KTA1 200126Z 04006KT 07/M04 A3027 RMK A01 T00701041  RH  045%=      5-min Rain = 0
KTA1 200127Z 04006KT 07/M04 A3027 RMK A01 T00701040  RH  045%=      5-min Rain = 0
KTA1 200128Z 04006KT 07/M04 A3027 RMK A01 T00691040  RH  046%=      5-min Rain = 0
KTA1 200129Z 04006KT 07/M04 A3027 RMK A01 T00691039  RH  046%=      5-min Rain = 0
KTA1 200130Z 05005KT 07/M04 A3027 RMK A01 T00691039  RH  046%=      5-min Rain = 0
KTA1 200131Z 05004KT 07/M04 A3028 RMK A01 T00681040  RH  046%=      5-min Rain = 0
KTA1 200132Z 06003KT 07/M04 A3028 RMK A01 T00671039  RH  047%=      5-min Rain = 0
KTA1 200133Z 08002KT 07/M04 A3028 RMK A01 T00671039  RH  047%=      5-min Rain = 0
KTA1 200134Z 08004KT 07/M04 A3028 RMK A01 T00681039  RH  047%=      5-min Rain = 0
KTA1 200135Z 07004KT 07/M04 A3028 RMK A01 T00691038  RH  046%=      5-min Rain = 0
KTA1 200136Z 06004KT 07/M04 A3028 RMK A01 T00721037  RH  046%=      5-min Rain = 0
KTA1 200137Z 07003KT 07/M04 A3028 RMK A01 T00741037  RH  045%=      5-min Rain = 0
KTA1 200138Z 06004KT 07/M04 A3028 RMK A01 T00741038  RH  045%=      5-min Rain = 0
KTA1 200139Z 06004KT 07/M04 A3028 RMK A01 T00741038  RH  045%=      5-min Rain = 0
KTA1 200140Z 06004KT 07/M04 A3028 RMK A01 T00741038  RH  045%=      5-min Rain = 0
KTA1 200141Z 07004KT 07/M04 A3028 RMK A01 T00741038  RH  045%=      5-min Rain = 0
KTA1 200142Z 07004KT 07/M04 A3028 RMK A01 T00731038  RH  045%=      5-min Rain = 0
KTA1 200143Z 06004KT 07/M04 A3028 RMK A01 T00731038  RH  045%=      5-min Rain = 0
KTA1 200144Z 06004KT 07/M04 A3028 RMK A01 T00731038  RH  045%=      5-min Rain = 0
KTA1 200145Z 07004KT 07/M04 A3028 RMK A01 T00731038  RH  045%=      5-min Rain = 0
KTA1 200146Z 07004KT 07/M04 A3028 RMK A01 T00731038  RH  045%=      5-min Rain = 0
KTA1 200147Z 08003KT 07/M04 A3028 RMK A01 T00731039  RH  045%=      5-min Rain = 0
KTA1 200148Z 08003KT 07/M04 A3028 RMK A01 T00731040  RH  045%=      5-min Rain = 0
KTA1 200149Z 08003KT 07/M04 A3028 RMK A01 T00721041  RH  044%=      5-min Rain = 0
KTA1 200150Z 08003KT 07/M04 A3028 RMK A01 T00721041  RH  044%=      5-min Rain = 0
KTA1 200151Z 08003KT 07/M04 A3028 RMK A01 T00711041  RH  045%=      5-min Rain = 0
KTA1 200152Z 09003KT 07/M04 A3028 RMK A01 T00711041  RH  045%=      5-min Rain = 0
KTA1 200153Z 11003KT 07/M04 A3028 RMK A01 T00701041  RH  045%=      5-min Rain = 0
KTA1 200154Z 12003KT 07/M04 A3028 RMK A01 T00671043  RH  045%=      5-min Rain = 0
KTA1 200155Z 11003KT 07/M04 A3028 RMK A01 T00651043  RH  046%=      5-min Rain = 0
KTA1 200156Z 11004KT 06/M04 A3028 RMK A01 T00631042  RH  047%=      5-min Rain = 0
KTA1 200157Z 11003KT 06/M04 A3028 RMK A01 T00631042  RH  047%=      5-min Rain = 0
KTA1 200158Z 10004KT 06/M04 A3028 RMK A01 T00621043  RH  047%=      5-min Rain = 0
KTA1 200159Z 10004KT 06/M04 A3028 RMK A01 T00611043  RH  047%=      5-min Rain = 0
KTA1 200200Z 09004KT 06/M04 A3028 RMK A01 T00621043  RH  047%=      5-min Rain = 0
KTA1 200201Z 10004KT 06/M04 A3028 RMK A01 T00621043  RH  047%=      5-min Rain = 0
KTA1 200202Z 09004KT 06/M04 A3028 RMK A01 T00621043  RH  047%=      5-min Rain = 0
KTA1 200203Z 10004KT 06/M04 A3028 RMK A01 T00621044  RH  047%=      5-min Rain = 0
KTA1 200204Z 10004KT 06/M04 A3028 RMK A01 T00611044  RH  047%=      5-min Rain = 0
KTA1 200205Z 10004KT 06/M05 A3028 RMK A01 T00601045  RH  047%=      5-min Rain = 0
KTA1 200206Z 10004KT 06/M05 A3028 RMK A01 T00601045  RH  047%=      5-min Rain = 0
KTA1 200207Z 10004KT 06/M05 A3028 RMK A01 T00591045  RH  047%=      5-min Rain = 0
KTA1 200208Z 09004KT 06/M05 A3028 RMK A01 T00581045  RH  047%=      5-min Rain = 0
KTA1 200209Z 10004KT 06/M05 A3028 RMK A01 T00571046  RH  048%=      5-min Rain = 0
KTA1 200210Z 09004KT 06/M05 A3028 RMK A01 T00571045  RH  048%=      5-min Rain = 0
KTA1 200211Z 09005KT 06/M04 A3028 RMK A01 T00571044  RH  048%=      5-min Rain = 0
KTA1 200212Z 09005KT 06/M04 A3028 RMK A01 T00571043  RH  048%=      5-min Rain = 0
KTA1 200213Z 08005KT 06/M04 A3028 RMK A01 T00581043  RH  048%=      5-min Rain = 0
KTA1 200214Z 08005KT 06/M04 A3028 RMK A01 T00581043  RH  048%=      5-min Rain = 0
KTA1 200215Z 08005KT 06/M04 A3028 RMK A01 T00581043  RH  048%=      5-min Rain = 0
KTA1 200216Z 08005KT 06/M04 A3028 RMK A01 T00581043  RH  048%=      5-min Rain = 0
KTA1 200217Z 08005KT 06/M04 A3028 RMK A01 T00571043  RH  048%=      5-min Rain = 0
KTA1 200218Z 08005KT 06/M04 A3028 RMK A01 T00571043  RH  048%=      5-min Rain = 0
KTA1 200219Z 08005KT 06/M04 A3027 RMK A01 T00571043  RH  049%=      5-min Rain = 0
KTA1 200220Z 09005KT 06/M04 A3027 RMK A01 T00571043  RH  049%=      5-min Rain = 0
KTA1 200221Z 09006KT 06/M04 A3027 RMK A01 T00571043  RH  049%=      5-min Rain = 0
KTA1 200222Z 09006KT 06/M04 A3027 RMK A01 T00571042  RH  049%=      5-min Rain = 0
KTA1 200223Z 09006KT 06/M04 A3027 RMK A01 T00571042  RH  049%=      5-min Rain = 0
KTA1 200224Z 09006KT 06/M04 A3027 RMK A01 T00561043  RH  049%=      5-min Rain = 0
KTA1 200225Z 09006KT 06/M04 A3027 RMK A01 T00551043  RH  049%=      5-min Rain = 0
KTA1 200226Z 09006KT 05/M04 A3027 RMK A01 T00541044  RH  049%=      5-min Rain = 0
KTA1 200227Z 08006KT 05/M04 A3027 RMK A01 T00531044  RH  050%=      5-min Rain = 0
KTA1 200228Z 09005KT 05/M04 A3027 RMK A01 T00531043  RH  050%=      5-min Rain = 0
KTA1 200229Z 09005KT 05/M04 A3028 RMK A01 T00521044  RH  050%=      5-min Rain = 0
KTA1 200230Z 09004KT 05/M04 A3028 RMK A01 T00501044  RH  050%=      5-min Rain = 0
KTA1 200231Z 10004KT 05/M05 A3028 RMK A01 T00491045  RH  051%=      5-min Rain = 0
KTA1 200232Z 10004KT 05/M05 A3028 RMK A01 T00471045  RH  051%=      5-min Rain = 0
KTA1 200233Z 10004KT 05/M05 A3028 RMK A01 T00461046  RH  051%=      5-min Rain = 0
KTA1 200234Z 10004KT 05/M05 A3028 RMK A01 T00451047  RH  051%=      5-min Rain = 0
KTA1 200235Z 10004KT 04/M05 A3028 RMK A01 T00441048  RH  051%=      5-min Rain = 0
KTA1 200236Z 10004KT 04/M05 A3028 RMK A01 T00421050  RH  051%=      5-min Rain = 0
KTA1 200237Z 10004KT 04/M05 A3028 RMK A01 T00411051  RH  051%=      5-min Rain = 0
KTA1 200238Z 11004KT 04/M05 A3028 RMK A01 T00401051  RH  052%=      5-min Rain = 0
KTA1 200239Z 12003KT 04/M05 A3028 RMK A01 T00401050  RH  052%=      5-min Rain = 0
KTA1 200240Z 11003KT 04/M05 A3028 RMK A01 T00401049  RH  052%=      5-min Rain = 0
KTA1 200241Z 10003KT 04/M05 A3028 RMK A01 T00401049  RH  052%=      5-min Rain = 0
KTA1 200242Z 10003KT 04/M05 A3028 RMK A01 T00401049  RH  052%=      5-min Rain = 0
KTA1 200243Z 10003KT 04/M05 A3028 RMK A01 T00401049  RH  052%=      5-min Rain = 0
KTA1 200244Z 10004KT 04/M05 A3028 RMK A01 T00401049  RH  052%=      5-min Rain = 0
KTA1 200245Z 10004KT 04/M05 A3028 RMK A01 T00401049  RH  052%=      5-min Rain = 0
KTA1 200246Z 10004KT 04/M05 A3028 RMK A01 T00401049  RH  052%=      5-min Rain = 0
KTA1 200247Z 10004KT 04/M05 A3028 RMK A01 T00401049  RH  052%=      5-min Rain = 0
KTA1 200248Z 10004KT 04/M05 A3029 RMK A01 T00401049  RH  052%=      5-min Rain = 0
KTA1 200249Z 09003KT 04/M05 A3029 RMK A01 T00401049  RH  052%=      5-min Rain = 0
KTA1 200250Z 09004KT 04/M05 A3029 RMK A01 T00411049  RH  052%=      5-min Rain = 0
KTA1 200251Z 09004KT 04/M05 A3029 RMK A01 T00411049  RH  052%=      5-min Rain = 0
KTA1 200252Z 09004KT 04/M05 A3029 RMK A01 T00421049  RH  052%=      5-min Rain = 0
KTA1 200253Z 09005KT 04/M05 A3029 RMK A01 T00431049  RH  051%=      5-min Rain = 0
KTA1 200254Z 09005KT 04/M05 A3029 RMK A01 T00441048  RH  051%=      5-min Rain = 0
KTA1 200255Z 09005KT 05/M05 A3029 RMK A01 T00451048  RH  051%=      5-min Rain = 0
KTA1 200256Z 09005KT 05/M05 A3029 RMK A01 T00451048  RH  051%=      5-min Rain = 0
KTA1 200257Z 09005KT 05/M05 A3029 RMK A01 T00451048  RH  051%=      5-min Rain = 0
KTA1 200258Z 09005KT 05/M05 A3029 RMK A01 T00461048  RH  051%=      5-min Rain = 0
KTA1 200259Z 09005KT 05/M05 A3029 RMK A01 T00461048  RH  051%=      5-min Rain = 0
KTA1 200300Z 09005KT 05/M05 A3029 RMK A01 T00451048  RH  051%=      5-min Rain = 0
KTA1 200301Z 09005KT 04/M05 A3029 RMK A01 T00441048  RH  051%=      5-min Rain = 0
KTA1 200302Z 09005KT 04/M05 A3029 RMK A01 T00431048  RH  052%=      5-min Rain = 0
KTA1 200303Z 09005KT 04/M05 A303 RMK A01 T00421047  RH  052%=      5-min Rain = 0
KTA1 200304Z 09005KT 04/M05 A303 RMK A01 T00431047  RH  052%=      5-min Rain = 0
KTA1 200305Z 09005KT 04/M05 A303 RMK A01 T00421047  RH  052%=      5-min Rain = 0
KTA1 200306Z 09005KT 04/M05 A303 RMK A01 T00421047  RH  052%=      5-min Rain = 0
KTA1 200307Z 09005KT 04/M05 A303 RMK A01 T00431047  RH  052%=      5-min Rain = 0
KTA1 200308Z 09005KT 04/M05 A303 RMK A01 T00431046  RH  052%=      5-min Rain = 0
KTA1 200309Z 09005KT 04/M05 A303 RMK A01 T00441046  RH  052%=      5-min Rain = 0
KTA1 200310Z 09005KT 04/M05 A303 RMK A01 T00441046  RH  052%=      5-min Rain = 0
KTA1 200311Z 08004KT 05/M05 A303 RMK A01 T00451045  RH  052%=      5-min Rain = 0
KTA1 200312Z 08005KT 05/M05 A303 RMK A01 T00451045  RH  052%=      5-min Rain = 0
KTA1 200313Z 08005KT 05/M05 A303 RMK A01 T00451045  RH  052%=      5-min Rain = 0
KTA1 200314Z 08005KT 05/M05 A303 RMK A01 T00461045  RH  052%=      5-min Rain = 0
KTA1 200315Z 08005KT 05/M05 A3031 RMK A01 T00461045  RH  052%=      5-min Rain = 0
KTA1 200316Z 08005KT 05/M04 A3031 RMK A01 T00461044  RH  052%=      5-min Rain = 0
KTA1 200317Z 08005KT 05/M04 A3031 RMK A01 T00461044  RH  052%=      5-min Rain = 0
KTA1 200318Z 08005KT 05/M04 A3031 RMK A01 T00461044  RH  052%=      5-min Rain = 0
KTA1 200319Z 07004KT 05/M04 A3031 RMK A01 T00461043  RH  052%=      5-min Rain = 0
KTA1 200320Z 08004KT 05/M04 A3031 RMK A01 T00461043  RH  052%=      5-min Rain = 0
KTA1 200321Z 08004KT 05/M04 A3031 RMK A01 T00461043  RH  052%=      5-min Rain = 0
KTA1 200322Z 08004KT 05/M04 A3031 RMK A01 T00471043  RH  052%=      5-min Rain = 0
KTA1 200323Z 08004KT 05/M04 A3031 RMK A01 T00471043  RH  052%=      5-min Rain = 0
KTA1 200324Z 08004KT 05/M04 A3031 RMK A01 T00471043  RH  052%=      5-min Rain = 0
KTA1 200325Z 08004KT 05/M04 A3031 RMK A01 T00471043  RH  052%=      5-min Rain = 0
KTA1 200326Z 08004KT 05/M04 A3031 RMK A01 T00471043  RH  052%=      5-min Rain = 0
KTA1 200327Z 08003KT 05/M04 A3031 RMK A01 T00481043  RH  052%=      5-min Rain = 0
KTA1 200328Z 07003KT 05/M04 A3031 RMK A01 T00481043  RH  052%=      5-min Rain = 0
KTA1 200329Z 07003KT 05/M04 A3031 RMK A01 T00481043  RH  052%=      5-min Rain = 0
KTA1 200330Z 07003KT 05/M04 A3031 RMK A01 T00481042  RH  052%=      5-min Rain = 0
KTA1 200331Z 07003KT 05/M04 A3031 RMK A01 T00481042  RH  052%=      5-min Rain = 0
KTA1 200332Z 07003KT 05/M04 A3032 RMK A01 T00481043  RH  052%=      5-min Rain = 0
KTA1 200333Z 07003KT 05/M04 A3032 RMK A01 T00491042  RH  052%=      5-min Rain = 0
KTA1 200334Z 08002KT 05/M04 A3032 RMK A01 T00481043  RH  052%=      5-min Rain = 0
KTA1 200335Z 08002KT 05/M04 A3032 RMK A01 T00471043  RH  052%=      5-min Rain = 0
KTA1 200336Z 08002KT 05/M04 A3032 RMK A01 T00461043  RH  052%=      5-min Rain = 0
KTA1 200337Z 08002KT 05/M04 A3032 RMK A01 T00461043  RH  053%=      5-min Rain = 0
KTA1 200338Z 09002KT 05/M04 A3032 RMK A01 T00451042  RH  053%=      5-min Rain = 0
KTA1 200339Z 10003KT 04/M04 A3031 RMK A01 T00441043  RH  053%=      5-min Rain = 0
KTA1 200340Z 10003KT 04/M04 A3031 RMK A01 T00431043  RH  053%=      5-min Rain = 0
KTA1 200341Z 11003KT 04/M04 A3031 RMK A01 T00431043  RH  054%=      5-min Rain = 0
KTA1 200342Z 11003KT 04/M04 A3031 RMK A01 T00431043  RH  054%=      5-min Rain = 0
KTA1 200343Z 11003KT 04/M04 A3031 RMK A01 T00421043  RH  054%=      5-min Rain = 0
KTA1 200344Z 11002KT 04/M04 A3031 RMK A01 T00421043  RH  054%=      5-min Rain = 0
KTA1 200345Z 11002KT 04/M04 A3031 RMK A01 T00421043  RH  054%=      5-min Rain = 0
KTA1 200346Z 11002KT 04/M04 A3031 RMK A01 T00411043  RH  054%=      5-min Rain = 0
KTA1 200347Z 11002KT 04/M04 A3031 RMK A01 T00421043  RH  054%=      5-min Rain = 0
KTA1 200348Z 11002KT 04/M04 A3032 RMK A01 T00411043  RH  054%=      5-min Rain = 0
KTA1 200349Z 12001KT 04/M04 A3032 RMK A01 T00401043  RH  055%=      5-min Rain = 0
KTA1 200350Z 14001KT 04/M04 A3032 RMK A01 T00401042  RH  055%=      5-min Rain = 0
KTA1 200351Z 15002KT 04/M04 A3032 RMK A01 T00381042  RH  056%=      5-min Rain = 0
KTA1 200352Z 16003KT 03/M04 A3032 RMK A01 T00341044  RH  056%=      5-min Rain = 0
KTA1 200353Z 17004KT 03/M05 A3031 RMK A01 T00281047  RH  058%=      5-min Rain = 0
KTA1 200354Z 17005KT 02/M05 A3031 RMK A01 T00231047  RH  060%=      5-min Rain = 0
KTA1 200355Z 17005KT 02/M05 A303 RMK A01 T00201047  RH  061%=      5-min Rain = 0
KTA1 200356Z 16005KT 02/M05 A303 RMK A01 T00191048  RH  061%=      5-min Rain = 0
KTA1 200357Z 17005KT 02/M05 A303 RMK A01 T00191049  RH  061%=      5-min Rain = 0
KTA1 200358Z 17006KT 02/M05 A303 RMK A01 T00211049  RH  060%=      5-min Rain = 0
KTA1 200359Z 17007KT 02/M05 A303 RMK A01 T00221049  RH  059%=      5-min Rain = 0
KTA1 200400Z 17007KT 02/M05 A3029 RMK A01 T00231049  RH  059%=      5-min Rain = 0
KTA1 200401Z 17007KT 02/M05 A3029 RMK A01 T00241050  RH  058%=      5-min Rain = 0
KTA1 200402Z 17007KT 03/M05 A303 RMK A01 T00251049  RH  058%=      5-min Rain = 0
KTA1 200403Z 17006KT 03/M05 A303 RMK A01 T00261048  RH  058%=      5-min Rain = 0
KTA1 200404Z 17005KT 03/M05 A303 RMK A01 T00271047  RH  058%=      5-min Rain = 0
KTA1 200405Z 17004KT 03/M05 A303 RMK A01 T00271047  RH  058%=      5-min Rain = 0
KTA1 200406Z 17004KT 03/M05 A303 RMK A01 T00271047  RH  058%=      5-min Rain = 0
KTA1 200407Z 16005KT 03/M05 A3029 RMK A01 T00271048  RH  058%=      5-min Rain = 0
KTA1 200408Z 16005KT 03/M05 A3029 RMK A01 T00271047  RH  058%=      5-min Rain = 0
KTA1 200409Z 15006KT 03/M05 A3029 RMK A01 T00261047  RH  059%=      5-min Rain = 0
KTA1 200410Z 15006KT 03/M05 A3029 RMK A01 T00261046  RH  059%=      5-min Rain = 0
KTA1 200411Z 15006KT 03/M05 A3029 RMK A01 T00261046  RH  059%=      5-min Rain = 0
KTA1 200412Z 15007KT 03/M05 A3029 RMK A01 T00261045  RH  060%=      5-min Rain = 0
KTA1 200413Z 16007KT 03/M05 A303 RMK A01 T00261045  RH  060%=      5-min Rain = 0
KTA1 200414Z 16007KT 03/M04 A303 RMK A01 T00261044  RH  060%=      5-min Rain = 0
KTA1 200415Z 16006KT 03/M04 A303 RMK A01 T00271044  RH  060%=      5-min Rain = 0
KTA1 200416Z 16006KT 03/M04 A303 RMK A01 T00271044  RH  060%=      5-min Rain = 0
KTA1 200417Z 16006KT 03/M04 A3029 RMK A01 T00271044  RH  060%=      5-min Rain = 0
KTA1 200418Z 16006KT 03/M04 A3029 RMK A01 T00261044  RH  060%=      5-min Rain = 0
KTA1 200419Z 15006KT 03/M04 A3029 RMK A01 T00251044  RH  060%=      5-min Rain = 0
KTA1 200420Z 15005KT 02/M05 A303 RMK A01 T00241045  RH  060%=      5-min Rain = 0
KTA1 200421Z 15005KT 02/M05 A303 RMK A01 T00241045  RH  061%=      5-min Rain = 0
KTA1 200422Z 15005KT 02/M05 A303 RMK A01 T00241045  RH  061%=      5-min Rain = 0
KTA1 200423Z 15005KT 02/M05 A3029 RMK A01 T00241045  RH  060%=      5-min Rain = 0
KTA1 200424Z 14005KT 02/M05 A3029 RMK A01 T00241045  RH  060%=      5-min Rain = 0
KTA1 200425Z 14005KT 02/M05 A3029 RMK A01 T00231045  RH  061%=      5-min Rain = 0
KTA1 200426Z 14004KT 02/M05 A3029 RMK A01 T00231045  RH  061%=      5-min Rain = 0
KTA1 200427Z 14004KT 02/M05 A303 RMK A01 T00221045  RH  061%=      5-min Rain = 0
KTA1 200428Z 14004KT 02/M05 A303 RMK A01 T00221045  RH  061%=      5-min Rain = 0
KTA1 200429Z 14004KT 02/M05 A303 RMK A01 T00221046  RH  061%=      5-min Rain = 0
KTA1 200430Z 14005KT 02/M05 A303 RMK A01 T00221045  RH  061%=      5-min Rain = 0
KTA1 200431Z 14006KT 02/M05 A3029 RMK A01 T00221045  RH  061%=      5-min Rain = 0
KTA1 200432Z 14006KT 02/M05 A3029 RMK A01 T00221045  RH  061%=      5-min Rain = 0
KTA1 200433Z 14006KT 02/M05 A3029 RMK A01 T00211046  RH  061%=      5-min Rain = 0
KTA1 200434Z 14006KT 02/M05 A3029 RMK A01 T00191046  RH  062%=      5-min Rain = 0
KTA1 200435Z 15006KT 02/M05 A3029 RMK A01 T00171047  RH  062%=      5-min Rain = 0
KTA1 200436Z 15006KT 02/M05 A3029 RMK A01 T00151048  RH  063%=      5-min Rain = 0
KTA1 200437Z 15006KT 01/M05 A3029 RMK A01 T00141048  RH  063%=      5-min Rain = 0
KTA1 200438Z 15006KT 01/M05 A3029 RMK A01 T00141047  RH  064%=      5-min Rain = 0
KTA1 200439Z 15005KT 01/M05 A3029 RMK A01 T00131047  RH  064%=      5-min Rain = 0
KTA1 200440Z 15005KT 01/M05 A3029 RMK A01 T00131047  RH  065%=      5-min Rain = 0
KTA1 200441Z 14005KT 01/M05 A3029 RMK A01 T00121046  RH  065%=      5-min Rain = 0
KTA1 200442Z 14005KT 01/M05 A3029 RMK A01 T00131046  RH  065%=      5-min Rain = 0
KTA1 200443Z 13005KT 01/M05 A3029 RMK A01 T00131046  RH  065%=      5-min Rain = 0
KTA1 200444Z 13006KT 01/M05 A3029 RMK A01 T00141046  RH  065%=      5-min Rain = 0
KTA1 200445Z 12005KT 02/M05 A3029 RMK A01 T00151045  RH  065%=      5-min Rain = 0
KTA1 200446Z 12005KT 02/M04 A3029 RMK A01 T00161044  RH  064%=      5-min Rain = 0
KTA1 200447Z 12005KT 02/M04 A3029 RMK A01 T00171044  RH  064%=      5-min Rain = 0
KTA1 200448Z 11005KT 02/M04 A3029 RMK A01 T00201042  RH  063%=      5-min Rain = 0
KTA1 200449Z 11005KT 02/M04 A3029 RMK A01 T00211042  RH  063%=      5-min Rain = 0
KTA1 200450Z 11005KT 02/M04 A3029 RMK A01 T00211044  RH  062%=      5-min Rain = 0
KTA1 200451Z 11005KT 02/M04 A303 RMK A01 T00211044  RH  062%=      5-min Rain = 0
KTA1 200452Z 11005KT 02/M04 A303 RMK A01 T00211044  RH  062%=      5-min Rain = 0
KTA1 200453Z 11005KT 02/M05 A303 RMK A01 T00211045  RH  062%=      5-min Rain = 0
KTA1 200454Z 11006KT 02/M05 A3029 RMK A01 T00201045  RH  062%=      5-min Rain = 0
KTA1 200455Z 11006KT 02/M05 A3029 RMK A01 T00201045  RH  062%=      5-min Rain = 0
KTA1 200456Z 11006KT 02/M05 A3029 RMK A01 T00211045  RH  062%=      5-min Rain = 0
KTA1 200457Z 11006KT 02/M05 A3029 RMK A01 T00211045  RH  061%=      5-min Rain = 0
KTA1 200458Z 12006KT 02/M05 A3029 RMK A01 T00221046  RH  061%=      5-min Rain = 0
KTA1 200459Z 12005KT 02/M05 A3029 RMK A01 T00211046  RH  061%=      5-min Rain = 0
KTA1 200500Z 12005KT 02/M05 A3029 RMK A01 T00211046  RH  061%=      5-min Rain = 0
KTA1 200501Z 12005KT 02/M05 A3029 RMK A01 T00201047  RH  061%=      5-min Rain = 0
KTA1 200502Z 12005KT 02/M05 A303 RMK A01 T00191047  RH  062%=      5-min Rain = 0
KTA1 200503Z 12005KT 02/M05 A303 RMK A01 T00181047  RH  062%=      5-min Rain = 0
KTA1 200504Z 12005KT 02/M05 A303 RMK A01 T00171047  RH  062%=      5-min Rain = 0
KTA1 200505Z 12005KT 02/M05 A303 RMK A01 T00161048  RH  063%=      5-min Rain = 0
KTA1 200506Z 12004KT 02/M05 A303 RMK A01 T00151048  RH  063%=      5-min Rain = 0
KTA1 200507Z 12004KT 02/M05 A3031 RMK A01 T00151048  RH  063%=      5-min Rain = 0
KTA1 200508Z 12003KT 02/M05 A3031 RMK A01 T00151047  RH  063%=      5-min Rain = 0
KTA1 200509Z 13003KT 02/M05 A3031 RMK A01 T00151048  RH  063%=      5-min Rain = 0
KTA1 200510Z 13004KT 02/M05 A3031 RMK A01 T00151047  RH  063%=      5-min Rain = 0
KTA1 200511Z 13004KT 02/M05 A3031 RMK A01 T00151048  RH  063%=      5-min Rain = 0
KTA1 200512Z 12004KT 02/M05 A3031 RMK A01 T00151048  RH  063%=      5-min Rain = 0
KTA1 200513Z 12004KT 02/M05 A3031 RMK A01 T00151047  RH  063%=      5-min Rain = 0
KTA1 200514Z 10005KT 02/M05 A3031 RMK A01 T00151047  RH  063%=      5-min Rain = 0
KTA1 200515Z 10005KT 02/M05 A3031 RMK A01 T00161048  RH  063%=      5-min Rain = 0
KTA1 200516Z 09006KT 02/M05 A3031 RMK A01 T00161047  RH  063%=      5-min Rain = 0
KTA1 200517Z 09006KT 02/M05 A3031 RMK A01 T00151048  RH  063%=      5-min Rain = 0
KTA1 200518Z 09006KT 02/M05 A3031 RMK A01 T00151047  RH  063%=      5-min Rain = 0
KTA1 200519Z 09006KT 02/M05 A3031 RMK A01 T00151048  RH  063%=      5-min Rain = 0
KTA1 200520Z 09006KT 02/M05 A3031 RMK A01 T00151047  RH  063%=      5-min Rain = 0
KTA1 200521Z 09006KT 01/M05 A3031 RMK A01 T00141047  RH  064%=      5-min Rain = 0
KTA1 200522Z 10005KT 01/M05 A3031 RMK A01 T00141047  RH  064%=      5-min Rain = 0
KTA1 200523Z 10005KT 01/M05 A3031 RMK A01 T00141047  RH  064%=      5-min Rain = 0
KTA1 200524Z 10004KT 02/M05 A3031 RMK A01 T00151046  RH  064%=      5-min Rain = 0
KTA1 200525Z 10004KT 02/M05 A3031 RMK A01 T00151047  RH  064%=      5-min Rain = 0
KTA1 200526Z 10004KT 02/M05 A3031 RMK A01 T00151047  RH  064%=      5-min Rain = 0
KTA1 200527Z 10004KT 01/M05 A3031 RMK A01 T00131048  RH  064%=      5-min Rain = 0
KTA1 200528Z 10004KT 01/M05 A3031 RMK A01 T00121048  RH  064%=      5-min Rain = 0
KTA1 200529Z 10004KT 01/M05 A3031 RMK A01 T00111048  RH  065%=      5-min Rain = 0
KTA1 200530Z 10004KT 01/M05 A3031 RMK A01 T00111048  RH  065%=      5-min Rain = 0
KTA1 200531Z 10005KT 01/M05 A3031 RMK A01 T00101048  RH  065%=      5-min Rain = 0
KTA1 200532Z 10005KT 01/M05 A303 RMK A01 T00101048  RH  065%=      5-min Rain = 0
KTA1 200533Z 10005KT 01/M05 A303 RMK A01 T00101047  RH  065%=      5-min Rain = 0
KTA1 200534Z 10006KT 01/M05 A3031 RMK A01 T00101047  RH  065%=      5-min Rain = 0
KTA1 200535Z 11005KT 01/M05 A3031 RMK A01 T00101048  RH  065%=      5-min Rain = 0
KTA1 200536Z 11006KT 01/M05 A3031 RMK A01 T00101048  RH  065%=      5-min Rain = 0
KTA1 200537Z 11006KT 01/M05 A303 RMK A01 T00091049  RH  065%=      5-min Rain = 0
KTA1 200538Z 12006KT 01/M05 A303 RMK A01 T00091050  RH  065%=      5-min Rain = 0
KTA1 200539Z 12005KT 01/M05 A303 RMK A01 T00081050  RH  065%=      5-min Rain = 0
KTA1 200540Z 12005KT 01/M05 A303 RMK A01 T00071051  RH  065%=      5-min Rain = 0
KTA1 200541Z 12005KT 01/M05 A303 RMK A01 T00071051  RH  065%=      5-min Rain = 0
KTA1 200542Z 12005KT 01/M05 A303 RMK A01 T00061051  RH  066%=      5-min Rain = 0
KTA1 200543Z 12005KT 01/M05 A303 RMK A01 T00061051  RH  066%=      5-min Rain = 0
KTA1 200544Z 12005KT 01/M05 A3031 RMK A01 T00061050  RH  066%=      5-min Rain = 0
KTA1 200545Z 11005KT 01/M05 A3031 RMK A01 T00061050  RH  066%=      5-min Rain = 0
KTA1 200546Z 11005KT 01/M05 A3031 RMK A01 T00071049  RH  066%=      5-min Rain = 0
KTA1 200547Z 11005KT 01/M05 A3031 RMK A01 T00091048  RH  066%=      5-min Rain = 0
KTA1 200548Z 11005KT 01/M05 A3031 RMK A01 T00101048  RH  065%=      5-min Rain = 0
KTA1 200549Z 11005KT 01/M05 A3031 RMK A01 T00111048  RH  065%=      5-min Rain = 0
KTA1 200550Z 11005KT 01/M05 A3031 RMK A01 T00111048  RH  065%=      5-min Rain = 0
KTA1 200551Z 11006KT 01/M05 A3031 RMK A01 T00111048  RH  065%=      5-min Rain = 0
KTA1 200552Z 11006KT 01/M05 A3031 RMK A01 T00111048  RH  065%=      5-min Rain = 0
KTA1 200553Z 11006KT 01/M05 A3031 RMK A01 T00111048  RH  065%=      5-min Rain = 0
KTA1 200554Z 12006KT 01/M05 A3031 RMK A01 T00101049  RH  065%=      5-min Rain = 0
KTA1 200555Z 12005KT 01/M05 A3031 RMK A01 T00101048  RH  065%=      5-min Rain = 0
KTA1 200556Z 12005KT 01/M05 A3031 RMK A01 T00101048  RH  066%=      5-min Rain = 0
KTA1 200557Z 11006KT 01/M05 A3031 RMK A01 T00091048  RH  066%=      5-min Rain = 0
KTA1 200558Z 11006KT 01/M05 A3031 RMK A01 T00091048  RH  066%=      5-min Rain = 0
KTA1 200559Z 11005KT 01/M05 A3031 RMK A01 T00091048  RH  066%=      5-min Rain = 0

Page generated in 0.1613 seconds.